Data Archive--June, 2005

Date Time Heat Index Current Temp Wind Chill High Temp Low Temp Humidity Dew Point Wind Speed Gust Wind Direction Rain Barometer
06/01/2005 12:00 a 57.8 57.8 57.8 58.3 57.1 88 54.3 0.0 0.0 --- 0.00 30.026
06/01/2005 12:30 a 56.7 56.7 56.7 57.1 56.3 90 53.8 0.0 0.0 --- 0.00 30.023
06/01/2005 1:00 a 56.0 56.0 56.0 56.3 55.8 91 53.4 0.0 0.0 --- 0.00 30.017
06/01/2005 1:30 a 55.6 55.6 55.6 55.8 55.2 90 52.7 0.0 0.0 --- 0.00 30.024
06/01/2005 2:00 a 54.9 54.9 54.9 55.2 54.4 91 52.3 0.0 0.0 --- 0.00 30.026
06/01/2005 2:30 a 54.0 54.0 54.0 54.4 53.6 92 51.7 0.0 0.0 --- 0.00 30.027
06/01/2005 3:00 a 53.4 53.4 53.4 53.7 53.3 92 51.1 0.0 0.0 --- 0.00 30.021
06/01/2005 3:30 a 53.2 53.2 53.2 53.3 53.1 94 51.5 0.0 0.0 --- 0.00 30.019
06/01/2005 4:00 a 53.1 53.1 53.1 53.2 53.1 94 51.4 0.0 0.0 --- 0.00 30.024
06/01/2005 4:30 a 53.3 53.3 53.3 53.6 53.1 95 51.9 0.0 0.0 --- 0.00 30.033
06/01/2005 5:00 a 54.1 54.1 54.1 54.6 53.6 95 52.7 0.0 0.0 --- 0.00 30.048
06/01/2005 5:30 a 55.0 55.0 55.0 55.4 54.6 93 53.0 0.0 0.0 --- 0.00 30.051
06/01/2005 6:00 a 55.5 55.5 55.5 55.7 55.3 92 53.2 0.0 1.0 NW 0.00 30.061
06/01/2005 6:30 a 56.0 56.0 56.0 56.2 55.7 89 52.8 0.0 2.0 NW 0.00 30.070
06/01/2005 7:00 a 56.4 56.4 56.4 56.5 56.2 88 52.9 0.0 2.0 NW 0.00 30.081
06/01/2005 7:30 a 56.4 56.4 56.4 56.5 56.3 87 52.6 0.0 2.0 NW 0.00 30.089
06/01/2005 8:00 a 56.3 56.3 56.3 56.4 56.1 87 52.5 0.0 2.0 NW 0.00 30.096
06/01/2005 8:30 a 56.6 56.6 56.6 57.2 56.2 87 52.8 0.0 2.0 NW 0.00 30.104
06/01/2005 9:00 a 57.5 57.5 57.5 58.0 57.2 85 53.0 0.0 2.0 NW 0.00 30.109
06/01/2005 9:30 a 57.8 57.8 57.8 58.0 57.6 85 53.3 0.0 2.0 NW 0.00 30.108
06/01/2005 10:00 a 58.0 58.0 58.0 58.3 57.7 83 52.9 0.0 2.0 WNW 0.00 30.115
06/01/2005 10:30 a 58.5 58.5 58.5 58.6 58.3 83 53.4 0.0 2.0 WNW 0.00 30.121
06/01/2005 11:00 a 58.7 58.7 58.7 59.0 58.5 81 52.9 0.0 3.0 NW 0.00 30.122
06/01/2005 11:30 a 59.3 59.3 59.3 59.6 59.0 81 53.5 0.0 3.0 NW 0.00 30.122
06/01/2005 12:00 p 59.7 59.7 59.7 59.9 59.6 80 53.5 0.0 3.0 NNW 0.00 30.120
06/01/2005 12:30 p 59.9 59.9 59.9 60.4 59.8 81 54.1 0.0 2.0 NW 0.00 30.118
06/01/2005 1:00 p 60.7 60.7 60.7 61.3 60.4 77 53.5 0.0 3.0 NW 0.00 30.111
06/01/2005 1:30 p 61.3 61.3 61.3 61.7 61.0 76 53.7 0.0 3.0 WNW 0.00 30.107
06/01/2005 2:00 p 62.2 62.2 62.2 62.7 61.7 75 54.2 0.0 3.0 NW 0.00 30.100
06/01/2005 2:30 p 63.2 63.2 63.2 64.2 62.4 73 54.4 1.0 4.0 NW 0.00 30.093
06/01/2005 3:00 p 64.9 64.9 64.9 65.2 64.2 72 55.7 1.0 3.0 N 0.00 30.095
06/01/2005 3:30 p 65.9 65.9 65.9 66.3 65.2 71 56.2 0.0 2.0 NNE 0.00 30.086
06/01/2005 4:00 p 66.8 66.8 66.8 67.3 66.1 68 55.9 0.0 3.0 N 0.01 30.082
06/01/2005 4:30 p 67.1 67.1 67.1 67.5 66.8 68 56.2 0.0 3.0 N 0.00 30.077
06/01/2005 5:00 p 67.7 67.7 67.7 67.9 67.5 67 56.4 0.0 3.0 NNW 0.00 30.078
06/01/2005 5:30 p 67.5 67.5 67.5 67.8 67.2 68 56.6 0.0 2.0 NNW 0.00 30.078
06/01/2005 6:00 p 66.4 66.4 66.4 67.2 65.9 70 56.3 0.0 3.0 N 0.00 30.079
06/01/2005 6:30 p 65.4 65.4 65.4 65.9 64.9 70 55.4 0.0 3.0 N 0.00 30.079
06/01/2005 7:00 p 64.0 64.0 64.0 64.9 63.1 73 55.2 0.0 2.0 NNW 0.00 30.089
06/01/2005 7:30 p 62.2 62.2 62.2 63.1 61.2 77 54.9 0.0 3.0 NNW 0.00 30.097
06/01/2005 8:00 p 60.0 60.0 60.0 61.2 59.0 82 54.5 0.0 2.0 NNW 0.00 30.104
06/01/2005 8:30 p 58.1 58.1 58.1 59.0 57.4 84 53.3 0.0 2.0 NNW 0.00 30.119
06/01/2005 9:00 p 57.0 57.0 57.0 57.4 56.6 86 52.9 0.0 1.0 N 0.00 30.128
06/01/2005 9:30 p 56.2 56.2 56.2 56.6 55.8 88 52.7 0.0 0.0 --- 0.00 30.134
06/01/2005 10:00 p 55.5 55.5 55.5 55.8 55.2 89 52.3 0.0 0.0 --- 0.00 30.142
06/01/2005 10:30 p 55.2 55.2 55.2 55.3 55.1 89 52.0 0.0 0.0 --- 0.00 30.141
06/01/2005 11:00 p 54.9 54.9 54.9 55.1 54.7 89 51.7 0.0 1.0 NNW 0.00 30.134
06/01/2005 11:30 p 54.7 54.7 54.7 54.9 54.6 90 51.8 0.0 1.0 N 0.00 30.136
06/02/2005 12:00 a 54.8 54.8 54.8 54.9 54.5 90 51.9 0.0 1.0 N 0.00 30.137
06/02/2005 12:30 a 54.4 54.4 54.4 54.5 54.4 90 51.5 0.0 0.0 --- 0.00 30.132
06/02/2005 1:00 a 54.4 54.4 54.4 54.5 54.2 90 51.5 0.0 0.0 --- 0.00 30.127
06/02/2005 1:30 a 53.9 53.9 53.9 54.2 53.6 90 51.0 0.0 1.0 N 0.00 30.131
06/02/2005 2:00 a 53.4 53.4 53.4 53.6 53.3 92 51.1 0.0 0.0 --- 0.00 30.123
06/02/2005 2:30 a 53.5 53.5 53.5 53.6 53.4 91 50.9 0.0 0.0 --- 0.00 30.124
06/02/2005 3:00 a 53.7 53.7 53.7 53.8 53.6 92 51.4 0.0 0.0 --- 0.00 30.117
06/02/2005 3:30 a 53.8 53.8 53.8 53.9 53.8 91 51.2 0.0 0.0 --- 0.00 30.117
06/02/2005 4:00 a 53.8 53.8 53.8 53.9 53.6 90 50.9 0.0 0.0 --- 0.00 30.117
06/02/2005 4:30 a 53.6 53.6 53.6 53.7 53.5 90 50.7 0.0 0.0 --- 0.00 30.114
06/02/2005 5:00 a 53.7 53.7 53.7 53.8 53.6 90 50.8 0.0 0.0 --- 0.00 30.120
06/02/2005 5:30 a 53.8 53.8 53.8 53.9 53.7 90 50.9 0.0 0.0 --- 0.00 30.125
06/02/2005 6:00 a 53.8 53.8 53.8 53.8 53.7 90 50.9 0.0 0.0 --- 0.00 30.137
06/02/2005 6:30 a 53.7 53.7 53.7 53.8 53.7 91 51.1 0.0 0.0 --- 0.00 30.139
06/02/2005 7:00 a 53.9 53.9 53.9 54.0 53.8 91 51.3 0.0 0.0 --- 0.00 30.139
06/02/2005 7:30 a 54.1 54.1 54.1 54.2 53.9 91 51.5 0.0 1.0 N 0.00 30.142
06/02/2005 8:00 a 54.4 54.4 54.4 54.6 54.2 91 51.8 0.0 0.0 --- 0.00 30.145
06/02/2005 8:30 a 54.7 54.7 54.7 54.9 54.6 90 51.8 0.0 0.0 --- 0.00 30.153
06/02/2005 9:00 a 55.0 55.0 55.0 55.2 54.8 90 52.1 0.0 0.0 --- 0.00 30.154
06/02/2005 9:30 a 55.3 55.3 55.3 55.4 55.2 89 52.1 0.0 1.0 --- 0.00 30.154
06/02/2005 10:00 a 55.5 55.5 55.5 55.7 55.4 89 52.3 0.0 1.0 N 0.00 30.150
06/02/2005 10:30 a 56.1 56.1 56.1 56.6 55.7 86 52.0 0.0 1.0 N 0.00 30.152
06/02/2005 11:00 a 56.9 56.9 56.9 57.1 56.6 85 52.4 0.0 0.0 --- 0.00 30.155
06/02/2005 11:30 a 57.5 57.5 57.5 58.1 57.1 84 52.7 0.0 2.0 N 0.00 30.149
06/02/2005 12:00 p 58.8 58.8 58.8 59.7 58.1 80 52.7 0.0 2.0 N 0.00 30.141
06/02/2005 12:30 p 61.2 61.2 61.2 62.2 59.7 76 53.6 0.0 2.0 N 0.00 30.128
06/02/2005 1:00 p 63.4 63.4 63.4 64.2 62.2 72 54.2 0.0 2.0 ENE 0.00 30.118
06/02/2005 1:30 p 65.3 65.3 65.3 65.8 64.3 69 54.9 0.0 3.0 NE 0.00 30.105
06/02/2005 2:00 p 66.7 66.7 66.7 67.6 65.8 67 55.4 0.0 2.0 N 0.00 30.090
06/02/2005 2:30 p 68.0 68.3 68.3 68.8 67.6 62 54.8 0.0 3.0 N 0.00 30.084
06/02/2005 3:00 p 69.0 68.5 68.5 69.0 68.4 63 55.4 0.0 2.0 N 0.00 30.075
06/02/2005 3:30 p 69.0 69.3 69.3 69.5 69.0 61 55.3 0.0 3.0 N 0.00 30.070
06/02/2005 4:00 p 68.8 68.9 68.9 69.4 68.5 59 54.0 1.0 3.0 N 0.00 30.058
06/02/2005 4:30 p 69.0 68.5 68.5 68.8 68.1 60 54.1 0.0 3.0 N 0.00 30.052
06/02/2005 5:00 p 67.9 67.9 67.9 68.1 67.7 62 54.4 0.0 4.0 N 0.00 30.043
06/02/2005 5:30 p 67.4 67.4 67.4 67.7 67.2 59 52.6 0.0 3.0 NNW 0.00 30.039
06/02/2005 6:00 p 66.9 66.9 66.9 67.3 66.6 64 54.3 0.0 2.0 N 0.00 30.033
06/02/2005 6:30 p 66.4 66.4 66.4 66.7 66.0 64 53.9 0.0 1.0 N 0.00 30.032
06/02/2005 7:00 p 65.4 65.4 65.4 66.0 64.9 67 54.2 0.0 1.0 N 0.00 30.032
06/02/2005 7:30 p 64.1 64.1 64.1 64.9 63.3 71 54.5 0.0 1.0 N 0.00 30.034
06/02/2005 8:00 p 62.4 62.4 62.4 63.3 61.6 75 54.4 0.0 0.0 --- 0.00 30.039
06/02/2005 8:30 p 60.8 60.8 60.8 61.6 60.0 79 54.3 0.0 0.0 --- 0.00 30.048
06/02/2005 9:00 p 59.3 59.3 59.3 60.0 58.5 81 53.5 0.0 0.0 --- 0.00 30.056
06/02/2005 9:30 p 57.8 57.8 57.8 58.4 57.3 83 52.7 0.0 0.0 --- 0.00 30.070
06/02/2005 10:00 p 56.9 56.9 56.9 57.3 56.4 86 52.8 0.0 1.0 --- 0.00 30.070
06/02/2005 10:30 p 56.0 56.0 56.0 56.4 55.6 88 52.5 0.0 0.0 --- 0.00 30.074
06/02/2005 11:00 p 55.6 55.6 55.6 55.7 55.5 89 52.4 0.0 0.0 --- 0.00 30.076
06/02/2005 11:30 p 56.0 56.0 56.0 56.1 55.7 87 52.2 0.0 1.0 N 0.00 30.077
06/03/2005 12:00 a 56.1 56.1 56.1 56.2 56.1 87 52.3 0.0 1.0 N 0.00 30.071
06/03/2005 12:30 a 56.0 56.0 56.0 56.1 55.9 87 52.2 0.0 1.0 --- 0.00 30.071
06/03/2005 1:00 a 55.8 55.8 55.8 55.9 55.8 87 52.0 0.0 0.0 --- 0.00 30.070
06/03/2005 1:30 a 56.0 56.0 56.0 56.0 55.9 87 52.2 0.0 0.0 --- 0.00 30.066
06/03/2005 2:00 a 56.0 56.0 56.0 56.1 56.0 88 52.5 0.0 0.0 --- 0.00 30.060
06/03/2005 2:30 a 56.1 56.1 56.1 56.2 56.0 87 52.3 0.0 0.0 --- 0.00 30.050
06/03/2005 3:00 a 56.1 56.1 56.1 56.2 56.1 87 52.3 0.0 0.0 --- 0.00 30.044
06/03/2005 3:30 a 55.9 55.9 55.9 56.1 55.7 87 52.1 0.0 0.0 --- 0.00 30.040
06/03/2005 4:00 a 55.6 55.6 55.6 55.7 55.5 88 52.1 0.0 0.0 --- 0.00 30.038
06/03/2005 4:30 a 55.6 55.6 55.6 55.7 55.5 88 52.1 0.0 0.0 --- 0.00 30.042
06/03/2005 5:00 a 55.8 55.8 55.8 55.9 55.6 88 52.3 0.0 0.0 --- 0.00 30.041
06/03/2005 5:30 a 56.0 56.0 56.0 56.1 55.9 88 52.5 0.0 0.0 --- 0.00 30.047
06/03/2005 6:00 a 56.3 56.3 56.3 56.5 56.1 88 52.8 0.0 0.0 --- 0.00 30.049
06/03/2005 6:30 a 56.7 56.7 56.7 56.9 56.4 89 53.5 0.0 0.0 --- 0.00 30.048
06/03/2005 7:00 a 57.0 57.0 57.0 57.2 56.8 89 53.8 0.0 0.0 --- 0.00 30.041
06/03/2005 7:30 a 57.4 57.4 57.4 57.6 57.2 91 54.8 0.0 0.0 --- 0.00 30.039
06/03/2005 8:00 a 57.7 57.7 57.7 57.8 57.6 93 55.7 0.0 0.0 --- 0.00 30.042
06/03/2005 8:30 a 57.8 57.8 57.8 57.9 57.8 93 55.8 0.0 0.0 --- 0.01 30.040
06/03/2005 9:00 a 57.9 57.9 57.9 57.9 57.9 94 56.2 0.0 0.0 --- 0.01 30.037
06/03/2005 9:30 a 58.0 58.0 58.0 58.1 57.9 94 56.3 0.0 0.0 --- 0.00 30.036
06/03/2005 10:00 a 58.2 58.2 58.2 58.4 58.0 93 56.2 0.0 0.0 --- 0.00 30.034
06/03/2005 10:30 a 58.6 58.6 58.6 58.8 58.3 92 56.3 0.0 0.0 --- 0.00 30.031
06/03/2005 11:00 a 59.2 59.2 59.2 59.7 58.8 93 57.2 0.0 0.0 --- 0.00 30.023
06/03/2005 11:30 a 59.9 59.9 59.9 60.2 59.7 91 57.3 0.0 1.0 --- 0.00 30.021
06/03/2005 12:00 p 60.4 60.4 60.4 60.6 60.2 90 57.5 0.0 1.0 --- 0.00 30.010
06/03/2005 12:30 p 61.1 61.1 61.1 61.5 60.6 88 57.5 0.0 2.0 S 0.00 30.001
06/03/2005 1:00 p 61.9 61.9 61.9 62.1 61.5 87 58.0 0.0 2.0 S 0.00 29.991
06/03/2005 1:30 p 62.5 62.5 62.5 62.8 62.1 88 58.9 0.0 1.0 --- 0.00 29.978
06/03/2005 2:00 p 62.5 62.5 62.5 62.9 62.0 90 59.5 0.0 2.0 N 0.01 29.964
06/03/2005 2:30 p 61.8 61.8 61.8 62.0 61.6 94 60.1 0.0 1.0 --- 0.01 29.955
06/03/2005 3:00 p 61.4 61.4 61.4 61.6 61.3 94 59.7 0.0 1.0 --- 0.02 29.949
06/03/2005 3:30 p 61.1 61.1 61.1 61.3 60.9 94 59.4 0.0 1.0 --- 0.01 29.933
06/03/2005 4:00 p 60.8 60.8 60.8 60.9 60.5 95 59.4 0.0 0.0 --- 0.01 29.924
06/03/2005 4:30 p 60.4 60.4 60.4 60.6 60.2 96 59.3 0.0 0.0 --- 0.02 29.920
06/03/2005 5:00 p 59.9 59.9 59.9 60.3 59.6 95 58.5 0.0 1.0 --- 0.01 29.914
06/03/2005 5:30 p 59.5 59.5 59.5 59.6 59.4 97 58.7 0.0 1.0 N 0.02 29.901
06/03/2005 6:00 p 59.5 59.5 59.5 59.6 59.4 97 58.7 0.0 1.0 --- 0.01 29.888
06/03/2005 6:30 p 59.7 59.7 59.7 59.7 59.6 97 58.9 0.0 0.0 --- 0.02 29.889
06/03/2005 7:00 p 59.7 59.7 59.7 59.7 59.6 97 58.9 0.0 0.0 --- 0.01 29.882
06/03/2005 7:30 p 59.6 59.6 59.6 59.7 59.6 97 58.8 0.0 0.0 --- 0.01 29.878
06/03/2005 8:00 p 59.7 59.7 59.7 59.8 59.6 98 59.1 0.0 0.0 --- 0.02 29.873
06/03/2005 8:30 p 59.9 59.9 59.9 60.0 59.8 98 59.3 0.0 0.0 --- 0.01 29.864
06/03/2005 9:00 p 60.0 60.0 60.0 60.1 60.0 98 59.4 0.0 0.0 --- 0.01 29.865
06/03/2005 9:30 p 60.1 60.1 60.1 60.2 60.1 98 59.5 0.0 0.0 --- 0.01 29.862
06/03/2005 10:00 p 60.3 60.3 60.3 60.4 60.2 98 59.7 0.0 0.0 --- 0.01 29.851
06/03/2005 10:30 p 60.5 60.5 60.5 60.6 60.4 99 60.2 0.0 0.0 --- 0.02 29.853
06/03/2005 11:00 p 60.7 60.7 60.7 60.8 60.6 98 60.1 0.0 0.0 --- 0.01 29.842
06/03/2005 11:30 p 60.8 60.8 60.8 60.9 60.8 99 60.5 0.0 0.0 --- 0.01 29.834
06/04/2005 12:00 a 60.9 60.9 60.9 61.0 60.9 98 60.3 0.0 0.0 --- 0.01 29.831
06/04/2005 12:30 a 61.0 61.0 61.0 61.0 60.9 99 60.7 0.0 0.0 --- 0.01 29.821
06/04/2005 1:00 a 60.9 60.9 60.9 61.0 60.8 99 60.6 0.0 1.0 N 0.01 29.812
06/04/2005 1:30 a 60.7 60.7 60.7 60.8 60.6 99 60.4 0.0 0.0 --- 0.01 29.801
06/04/2005 2:00 a 60.5 60.5 60.5 60.6 60.5 98 59.9 0.0 1.0 --- 0.00 29.789
06/04/2005 2:30 a 60.5 60.5 60.5 60.6 60.5 98 59.9 0.0 1.0 NNE 0.01 29.787
06/04/2005 3:00 a 60.5 60.5 60.5 60.6 60.5 99 60.2 0.0 1.0 --- 0.01 29.777
06/04/2005 3:30 a 60.6 60.6 60.6 60.7 60.5 99 60.3 0.0 0.0 --- 0.00 29.774
06/04/2005 4:00 a 60.8 60.8 60.8 60.8 60.7 99 60.5 0.0 0.0 --- 0.01 29.773
06/04/2005 4:30 a 60.8 60.8 60.8 60.8 60.8 99 60.5 0.0 0.0 --- 0.01 29.780
06/04/2005 5:00 a 60.8 60.8 60.8 60.8 60.7 99 60.5 0.0 0.0 --- 0.00 29.775
06/04/2005 5:30 a 60.7 60.7 60.7 60.8 60.6 99 60.4 0.0 0.0 --- 0.00 29.770
06/04/2005 6:00 a 60.6 60.6 60.6 60.7 60.6 99 60.3 0.0 0.0 --- 0.01 29.780
06/04/2005 6:30 a 60.7 60.7 60.7 60.8 60.6 99 60.4 0.0 0.0 --- 0.00 29.783
06/04/2005 7:00 a 60.9 60.9 60.9 61.0 60.8 99 60.6 0.0 0.0 --- 0.01 29.788
06/04/2005 7:30 a 61.3 61.3 61.3 61.7 61.0 99 61.0 0.0 0.0 --- 0.00 29.787
06/04/2005 8:00 a 62.3 62.3 62.3 62.7 61.7 99 62.0 0.0 1.0 NNE 0.00 29.802
06/04/2005 8:30 a 62.9 62.9 62.9 63.1 62.7 98 62.3 0.0 1.0 NNE 0.01 29.814
06/04/2005 9:00 a 63.5 63.5 63.5 63.7 63.1 97 62.6 0.0 2.0 NNE 0.00 29.812
06/04/2005 9:30 a 64.3 64.3 64.3 65.2 63.7 95 62.8 0.0 3.0 E 0.01 29.802
06/04/2005 10:00 a 65.6 65.6 65.6 66.3 65.2 91 62.9 0.0 1.0 E 0.00 29.795
06/04/2005 10:30 a 67.5 67.5 67.5 68.5 66.3 87 63.5 0.0 3.0 E 0.00 29.793
06/04/2005 11:00 a 71.0 69.2 69.2 69.9 68.5 83 63.8 0.0 2.0 E 0.00 29.792
06/04/2005 11:30 a 72.2 70.9 70.9 71.6 69.9 76 63.0 0.0 5.0 E 0.01 29.797
06/04/2005 12:00 p 72.4 72.4 72.4 73.0 71.6 72 62.9 0.0 2.0 ESE 0.00 29.791
06/04/2005 12:30 p 73.9 73.3 73.3 73.9 73.0 69 62.5 0.0 2.0 ESE 0.01 29.784
06/04/2005 1:00 p 76.0 74.6 74.6 75.8 73.9 65 62.1 0.0 0.0 --- 0.01 29.779
06/04/2005 1:30 p 77.0 76.6 76.6 77.3 75.8 60 61.7 0.0 3.0 ESE 0.01 29.766
06/04/2005 2:00 p 78.8 77.7 77.7 78.3 77.3 58 61.8 0.0 2.0 ESE 0.01 29.762
06/04/2005 2:30 p 80.4 79.6 79.6 80.1 78.3 52 60.4 0.0 3.0 ESE 0.02 29.749
06/04/2005 3:00 p 80.6 80.0 80.0 80.6 79.5 53 61.4 0.0 1.0 --- 0.03 29.741
06/04/2005 3:30 p 81.0 80.3 80.3 80.7 79.3 55 62.7 0.0 2.0 ESE 0.03 29.735
06/04/2005 4:00 p 81.0 80.0 80.0 80.5 79.2 55 62.4 0.0 2.0 ENE 0.03 29.730
06/04/2005 4:30 p 81.0 80.4 80.4 80.6 80.2 55 62.8 0.0 3.0 SE 0.02 29.737
06/04/2005 5:00 p 81.8 80.5 80.5 80.6 80.3 54 62.3 0.0 3.0 NE 0.00 29.739
06/04/2005 5:30 p 81.0 80.4 80.4 80.7 80.0 55 62.8 0.0 2.0 NW 0.00 29.737
06/04/2005 6:00 p 81.4 79.7 79.7 80.0 79.2 57 63.1 0.0 2.0 ENE 0.00 29.736
06/04/2005 6:30 p 80.2 78.8 78.8 79.2 78.4 56 61.8 0.0 2.0 ENE 0.00 29.743
06/04/2005 7:00 p 78.5 78.4 78.4 78.5 78.3 55 60.9 0.0 1.0 --- 0.00 29.743
06/04/2005 7:30 p 79.2 77.8 77.8 78.3 76.9 62 63.8 0.0 1.0 ENE 0.00 29.750
06/04/2005 8:00 p 77.2 76.2 76.2 76.9 75.7 66 64.0 0.0 0.0 --- 0.00 29.747
06/04/2005 8:30 p 77.0 74.7 74.7 75.7 73.7 72 65.1 0.0 0.0 --- 0.00 29.748
06/04/2005 9:00 p 74.7 72.7 72.7 73.7 71.8 77 65.1 0.0 0.0 --- 0.00 29.759
06/04/2005 9:30 p 73.0 71.1 71.1 71.8 70.5 80 64.6 0.0 0.0 --- 0.00 29.770
06/04/2005 10:00 p 72.0 69.9 69.9 70.5 69.3 84 64.9 0.0 0.0 --- 0.00 29.776
06/04/2005 10:30 p 71.0 68.9 68.9 69.3 68.6 85 64.2 0.0 0.0 --- 0.00 29.778
06/04/2005 11:00 p 70.0 68.3 68.3 68.6 68.2 87 64.3 0.0 0.0 --- 0.00 29.768
06/04/2005 11:30 p 67.8 67.8 67.8 68.2 67.3 88 64.1 0.0 0.0 --- 0.00 29.773
06/05/2005 12:00 a 66.7 66.7 66.7 67.3 66.1 90 63.7 0.0 0.0 --- 0.00 29.777
06/05/2005 12:30 a 65.6 65.6 65.6 66.1 65.2 92 63.2 0.0 0.0 --- 0.00 29.778
06/05/2005 1:00 a 64.8 64.8 64.8 65.2 64.5 93 62.7 0.0 0.0 --- 0.00 29.773
06/05/2005 1:30 a 64.2 64.2 64.2 64.5 63.9 94 62.4 0.0 0.0 --- 0.00 29.776
06/05/2005 2:00 a 63.6 63.6 63.6 63.9 63.3 94 61.8 0.0 0.0 --- 0.00 29.771
06/05/2005 2:30 a 63.0 63.0 63.0 63.3 62.8 94 61.3 0.0 0.0 --- 0.00 29.769
06/05/2005 3:00 a 62.5 62.5 62.5 62.8 62.3 95 61.1 0.0 0.0 --- 0.00 29.770
06/05/2005 3:30 a 62.1 62.1 62.1 62.3 61.8 95 60.7 0.0 0.0 --- 0.00 29.762
06/05/2005 4:00 a 61.6 61.6 61.6 61.8 61.3 95 60.2 0.0 0.0 --- 0.00 29.770
06/05/2005 4:30 a 61.1 61.1 61.1 61.3 60.9 96 60.0 0.0 0.0 --- 0.00 29.771
06/05/2005 5:00 a 60.9 60.9 60.9 60.9 60.8 96 59.8 0.0 0.0 --- 0.00 29.777
06/05/2005 5:30 a 61.0 61.0 61.0 61.1 60.9 97 60.1 0.0 0.0 --- 0.00 29.782
06/05/2005 6:00 a 60.9 60.9 60.9 61.0 60.8 97 60.0 0.0 0.0 --- 0.00 29.791
06/05/2005 6:30 a 61.2 61.2 61.2 61.5 60.9 98 60.6 0.0 0.0 --- 0.00 29.800
06/05/2005 7:00 a 62.1 62.1 62.1 62.8 61.5 98 61.5 0.0 0.0 --- 0.00 29.798
06/05/2005 7:30 a 64.3 64.3 64.3 66.1 62.8 96 63.1 0.0 0.0 --- 0.00 29.814
06/05/2005 8:00 a 67.5 67.5 67.5 69.0 66.1 87 63.5 0.0 0.0 --- 0.00 29.828
06/05/2005 8:30 a 72.0 69.9 69.9 70.9 69.0 83 64.5 0.0 0.0 --- 0.00 29.837
06/05/2005 9:00 a 73.4 72.0 72.0 73.1 70.9 77 64.4 0.0 0.0 --- 0.00 29.837
06/05/2005 9:30 a 76.0 74.2 74.2 75.2 73.1 72 64.6 0.0 1.0 --- 0.00 29.840
06/05/2005 10:00 a 78.2 76.5 76.5 77.6 75.2 66 64.3 0.0 2.0 E 0.00 29.835
06/05/2005 10:30 a 79.3 78.3 78.3 79.0 77.5 63 64.7 0.0 1.0 --- 0.00 29.833
06/05/2005 11:00 a 81.6 79.7 79.7 80.2 79.0 58 63.6 0.0 3.0 SE 0.00 29.828
06/05/2005 11:30 a 82.2 80.6 80.6 81.4 80.2 56 63.5 0.0 2.0 SE 0.00 29.822
06/05/2005 12:00 p 83.1 82.3 82.3 83.1 81.3 51 62.4 0.0 2.0 SE 0.00 29.811
06/05/2005 12:30 p 86.0 83.7 83.7 84.2 83.1 50 63.1 0.0 2.0 SE 0.00 29.811
06/05/2005 1:00 p 87.0 84.7 84.7 85.5 84.1 50 64.0 0.0 1.0 ESE 0.00 29.797
06/05/2005 1:30 p 87.8 86.4 86.4 87.0 85.5 49 65.0 0.0 3.0 ESE 0.00 29.800
06/05/2005 2:00 p 89.1 87.0 87.0 87.3 86.7 47 64.4 0.0 3.0 ENE 0.00 29.794
06/05/2005 2:30 p 89.1 87.0 87.0 87.4 86.8 47 64.4 0.0 3.0 NE 0.00 29.791
06/05/2005 3:00 p 89.4 86.6 86.6 86.9 86.3 48 64.6 0.0 3.0 ESE 0.00 29.786
06/05/2005 3:30 p 87.8 86.1 86.1 86.9 85.6 49 64.7 0.0 2.0 ESE 0.00 29.782
06/05/2005 4:00 p 87.6 86.1 86.1 86.5 85.7 48 64.1 0.0 6.0 ESE 0.00 29.777
06/05/2005 4:30 p 87.8 86.4 86.4 86.7 86.1 49 65.0 0.0 3.0 E 0.00 29.773
06/05/2005 5:00 p 89.7 86.7 86.7 86.9 86.2 49 65.3 0.0 3.0 ESE 0.00 29.772
06/05/2005 5:30 p 87.4 85.2 85.2 86.2 84.6 52 65.6 0.0 0.0 --- 0.00 29.773
06/05/2005 6:00 p 85.6 84.4 84.4 84.7 84.2 48 62.6 0.0 2.0 ESE 0.00 29.770
06/05/2005 6:30 p 87.6 84.6 84.6 84.9 84.1 53 65.6 0.0 0.0 --- 0.00 29.771
06/05/2005 7:00 p 86.4 83.7 83.7 84.1 83.3 54 65.3 0.0 0.0 --- 0.00 29.775
06/05/2005 7:30 p 85.0 82.9 82.9 83.3 82.5 55 65.1 0.0 0.0 --- 0.00 29.776
06/05/2005 8:00 p 84.6 81.8 81.8 82.5 80.6 62 67.5 0.0 0.0 --- 0.00 29.773
06/05/2005 8:30 p 81.0 79.4 79.4 80.6 78.2 66 67.1 0.0 0.0 --- 0.00 29.776
06/05/2005 9:00 p 79.0 77.0 77.0 78.2 75.9 70 66.5 0.0 0.0 --- 0.00 29.775
06/05/2005 9:30 p 77.0 75.3 75.3 75.9 74.7 75 66.8 0.0 0.0 --- 0.00 29.784
06/05/2005 10:00 p 76.0 73.9 73.9 74.7 73.4 77 66.2 0.0 0.0 --- 0.00 29.783
06/05/2005 10:30 p 75.0 72.9 72.9 73.4 72.3 80 66.4 0.0 0.0 --- 0.00 29.791
06/05/2005 11:00 p 74.0 71.7 71.7 72.3 71.0 83 66.3 0.0 0.0 --- 0.00 29.800
06/05/2005 11:30 p 73.0 70.6 70.6 71.1 70.2 86 66.2 0.0 0.0 --- 0.00 29.804
06/06/2005 12:00 a 72.0 70.1 70.1 70.3 69.7 87 66.1 0.0 0.0 --- 0.00 29.811
06/06/2005 12:30 a 72.0 69.5 69.5 69.8 69.3 88 65.8 0.0 0.0 --- 0.00 29.811
06/06/2005 1:00 a 71.0 69.1 69.1 69.3 68.8 89 65.7 0.0 0.0 --- 0.00 29.814
06/06/2005 1:30 a 71.0 68.6 68.6 68.8 68.5 89 65.2 0.0 0.0 --- 0.00 29.817
06/06/2005 2:00 a 71.0 68.5 68.5 68.6 68.5 89 65.1 0.0 0.0 --- 0.00 29.821
06/06/2005 2:30 a 70.0 68.2 68.2 68.5 67.9 90 65.2 0.0 0.0 --- 0.00 29.824
06/06/2005 3:00 a 67.5 67.5 67.5 67.9 67.1 92 65.1 0.0 0.0 --- 0.00 29.817
06/06/2005 3:30 a 66.9 66.9 66.9 67.1 66.6 93 64.8 0.0 0.0 --- 0.00 29.805
06/06/2005 4:00 a 66.5 66.5 66.5 66.6 66.4 93 64.4 0.0 0.0 --- 0.00 29.816
06/06/2005 4:30 a 66.2 66.2 66.2 66.4 65.9 94 64.4 0.0 0.0 --- 0.00 29.819
06/06/2005 5:00 a 65.7 65.7 65.7 65.9 65.5 95 64.2 0.0 0.0 --- 0.00 29.816
06/06/2005 5:30 a 65.4 65.4 65.4 65.6 65.2 94 63.6 0.0 0.0 --- 0.00 29.818
06/06/2005 6:00 a 65.1 65.1 65.1 65.3 65.0 95 63.6 0.0 0.0 --- 0.00 29.832
06/06/2005 6:30 a 65.4 65.4 65.4 65.7 65.0 96 64.2 0.0 0.0 --- 0.00 29.833
06/06/2005 7:00 a 66.2 66.2 66.2 66.9 65.6 96 65.0 0.0 0.0 --- 0.00 29.848
06/06/2005 7:30 a 71.1 68.5 68.5 70.1 66.9 91 65.8 0.0 0.0 --- 0.00 29.851
06/06/2005 8:00 a 74.0 71.5 71.5 72.8 70.1 84 66.4 0.0 0.0 --- 0.00 29.849
06/06/2005 8:30 a 76.0 74.0 74.0 75.0 72.8 81 67.8 0.0 0.0 --- 0.00 29.847
06/06/2005 9:00 a 78.8 76.0 76.0 77.0 75.0 78 68.7 0.0 0.0 --- 0.00 29.840
06/06/2005 9:30 a 80.8 78.1 78.1 79.3 77.0 74 69.1 0.0 0.0 --- 0.00 29.845
06/06/2005 10:00 a 83.0 80.4 80.4 81.4 79.3 70 69.7 0.0 0.0 --- 0.00 29.842
06/06/2005 10:30 a 86.4 82.2 82.2 83.1 81.4 68 70.6 0.0 0.0 --- 0.00 29.844
06/06/2005 11:00 a 89.0 83.7 83.7 84.3 83.1 65 70.7 0.0 0.0 --- 0.00 29.841
06/06/2005 11:30 a 89.4 84.9 84.9 85.5 84.3 61 70.0 0.0 0.0 --- 0.00 29.834
06/06/2005 12:00 p 89.5 86.3 86.3 87.2 85.5 55 68.2 0.0 0.0 --- 0.00 29.817
06/06/2005 12:30 p 93.2 88.0 88.0 88.6 87.2 54 69.3 0.0 0.0 --- 0.00 29.807
06/06/2005 1:00 p 95.2 88.5 88.5 88.8 88.1 54 69.7 0.0 0.0 --- 0.00 29.799
06/06/2005 1:30 p 94.3 89.0 89.0 89.5 88.3 51 68.5 0.0 0.0 --- 0.00 29.793
06/06/2005 2:00 p 95.0 89.7 89.7 90.1 89.3 50 68.6 0.0 0.0 --- 0.00 29.781
06/06/2005 2:30 p 94.3 89.4 89.4 89.8 89.0 51 68.9 0.0 0.0 --- 0.00 29.767
06/06/2005 3:00 p 94.7 89.9 89.9 90.4 89.2 49 68.2 0.0 0.0 --- 0.00 29.777
06/06/2005 3:30 p 95.4 89.6 89.6 90.3 88.9 51 69.1 0.0 0.0 --- 0.00 29.760
06/06/2005 4:00 p 93.5 88.0 88.0 88.9 86.8 55 69.8 0.0 0.0 --- 0.00 29.766
06/06/2005 4:30 p 85.0 82.8 82.8 86.8 79.0 55 65.0 1.0 5.0 SSE 0.00 29.793
06/06/2005 5:00 p 78.8 77.0 77.0 79.0 75.3 69 66.1 0.0 4.0 ESE 0.00 29.774
06/06/2005 5:30 p 76.0 74.4 74.4 75.4 73.8 72 64.8 0.0 4.0 SE 0.01 29.776
06/06/2005 6:00 p 75.0 72.7 72.7 73.8 71.3 85 67.9 0.0 4.0 SE 0.01 29.783
06/06/2005 6:30 p 73.0 70.5 70.5 71.3 70.2 90 67.4 0.0 0.0 --- 0.01 29.767
06/06/2005 7:00 p 72.2 70.0 70.0 70.2 69.8 91 67.3 0.0 0.0 --- 0.00 29.761
06/06/2005 7:30 p 72.4 69.8 69.8 69.9 69.6 92 67.4 0.0 0.0 --- 0.00 29.774
06/07/2005 2:00 a 67.0 67.0 67.0 67.1 66.9 100 67.0 0.0 1.0 E 0.03 0.316
06/07/2005 2:30 a 66.8 66.8 66.8 67.0 66.7 97 65.9 0.0 0.0 --- 0.01 29.738
06/07/2005 3:00 a 66.6 66.6 66.6 66.7 66.4 97 65.7 0.0 1.0 E 0.01 29.736
06/07/2005 3:30 a 66.2 66.2 66.2 66.5 65.9 97 65.3 0.0 0.0 --- 0.00 29.737
06/07/2005 4:00 a 65.8 65.8 65.8 65.9 65.6 98 65.2 0.0 0.0 --- 0.00 29.734
06/07/2005 4:30 a 65.5 65.5 65.5 65.6 65.5 98 64.9 0.0 1.0 --- 0.00 29.735
06/07/2005 5:00 a 65.4 65.4 65.4 65.6 65.3 98 64.8 0.0 0.0 --- 0.00 29.737
06/07/2005 5:30 a 65.2 65.2 65.2 65.3 65.1 98 64.6 0.0 0.0 --- 0.00 29.743
06/07/2005 6:00 a 65.2 65.2 65.2 65.3 65.1 98 64.6 0.0 0.0 --- 0.00 29.748
06/07/2005 6:30 a 65.4 65.4 65.4 65.5 65.3 98 64.8 0.0 1.0 E 0.00 29.754
06/07/2005 7:00 a 65.7 65.7 65.7 66.1 65.5 98 65.1 0.0 3.0 E 0.00 29.758
06/07/2005 7:30 a 66.4 66.4 66.4 66.8 66.0 98 65.8 0.0 2.0 NNE 0.00 29.761
06/07/2005 8:00 a 67.4 67.4 67.4 68.0 66.7 96 66.2 0.0 2.0 N 0.00 29.767
06/07/2005 8:30 a 71.3 68.6 68.6 69.2 68.0 93 66.5 0.0 2.0 N 0.00 29.769
06/07/2005 9:00 a 72.2 69.9 69.9 70.8 69.2 91 67.2 0.0 3.0 N 0.00 29.765
06/07/2005 9:30 a 74.0 71.8 71.8 72.8 70.8 86 67.4 0.0 3.0 NE 0.00 29.764
06/07/2005 10:00 a 76.0 73.7 73.7 74.7 72.8 83 68.2 0.0 2.0 ENE 0.00 29.762
06/07/2005 10:30 a 79.0 75.5 75.5 76.3 74.7 80 68.9 0.0 2.0 ENE 0.00 29.759
06/07/2005 11:00 a 80.2 77.2 77.2 78.2 76.3 76 69.1 0.0 2.0 ENE 0.00 29.754
06/07/2005 11:30 a 81.2 79.3 79.3 80.4 78.2 71 69.1 0.0 3.0 ENE 0.00 29.750
06/07/2005 12:00 p 83.8 81.2 81.2 82.1 80.4 64 67.9 0.0 2.0 ENE 0.00 29.744
06/07/2005 12:30 p 87.0 83.5 83.5 84.4 82.2 60 68.2 0.0 2.0 N 0.00 29.741
06/07/2005 1:00 p 88.0 85.3 85.3 86.1 84.4 55 67.3 0.0 4.0 NNE 0.00 29.721
06/07/2005 1:30 p 89.5 86.4 86.4 86.7 86.1 55 68.3 0.0 4.0 SSE 0.00 29.711
06/07/2005 2:00 p 90.6 87.4 87.4 87.9 86.7 52 67.6 0.0 3.0 SE 0.00 29.702
06/07/2005 2:30 p 92.3 88.0 88.0 88.3 87.6 51 67.6 0.0 4.0 SSW 0.00 29.697
06/07/2005 3:00 p 90.9 87.2 87.2 87.6 86.6 53 68.0 0.0 3.0 SSE 0.00 29.697
06/07/2005 3:30 p 89.1 86.8 86.8 87.3 86.4 47 64.2 0.0 3.0 SE 0.00 29.699
06/07/2005 4:00 p 87.9 87.3 87.3 87.7 86.5 43 62.1 0.0 5.0 S 0.00 29.689
06/07/2005 4:30 p 90.8 87.5 87.5 87.7 87.2 47 64.8 0.0 5.0 SSE 0.00 29.687
06/07/2005 5:00 p 88.8 86.9 86.9 87.2 86.5 46 63.6 0.0 3.0 SE 0.00 29.678
06/07/2005 5:30 p 87.6 86.4 86.4 86.6 86.1 48 64.4 0.0 3.0 NNE 0.00 29.674
06/07/2005 6:00 p 86.0 86.1 86.1 86.2 85.9 40 59.0 0.0 3.0 E 0.00 29.670
06/07/2005 6:30 p 86.6 85.9 85.9 86.1 85.6 43 60.8 0.0 3.0 N 0.00 29.678
06/07/2005 7:00 p 85.8 85.1 85.1 85.6 84.6 44 60.8 0.0 3.0 E 0.00 29.682
06/07/2005 7:30 p 86.0 84.2 84.2 84.6 83.4 50 63.6 0.0 0.0 --- 0.00 29.679
06/08/2005 12:00 a 73.0 71.3 71.3 71.7 71.0 80 64.8 0.0 0.0 --- 0.00 29.724
06/08/2005 12:30 a 73.0 70.9 70.9 71.0 70.9 80 64.4 0.0 0.0 --- 0.00 29.724
06/08/2005 1:00 a 73.0 70.7 70.7 71.0 70.4 81 64.6 0.0 0.0 --- 0.00 29.719
06/08/2005 1:30 a 72.0 70.2 70.2 70.4 69.8 83 64.8 0.0 0.0 --- 0.00 29.722
06/08/2005 2:00 a 71.0 69.4 69.4 69.8 68.7 85 64.7 0.0 0.0 --- 0.00 29.728
06/08/2005 2:30 a 70.0 68.3 68.3 68.7 68.1 87 64.3 0.0 0.0 --- 0.00 29.731
06/08/2005 3:00 a 67.9 67.9 67.9 68.1 67.5 88 64.2 0.0 0.0 --- 0.00 29.731
06/08/2005 3:30 a 66.9 66.9 66.9 67.5 66.5 90 63.9 0.0 0.0 --- 0.00 29.732
06/08/2005 4:00 a 66.2 66.2 66.2 66.5 66.0 92 63.8 0.0 0.0 --- 0.00 29.741
06/08/2005 4:30 a 65.8 65.8 65.8 66.0 65.6 92 63.4 0.0 0.0 --- 0.00 29.752
06/08/2005 5:00 a 65.3 65.3 65.3 65.6 65.1 93 63.2 0.0 0.0 --- 0.00 29.761
06/08/2005 5:30 a 64.9 64.9 64.9 65.1 64.8 94 63.1 0.0 0.0 --- 0.00 29.774
06/08/2005 6:00 a 64.6 64.6 64.6 64.8 64.6 94 62.8 0.0 0.0 --- 0.00 29.782
06/08/2005 6:30 a 64.9 64.9 64.9 65.2 64.6 95 63.4 0.0 0.0 --- 0.00 29.789
06/08/2005 7:00 a 65.9 65.9 65.9 66.9 65.2 94 64.1 0.0 0.0 --- 0.00 29.788
06/08/2005 7:30 a 71.0 68.6 68.6 70.6 66.9 87 64.6 0.0 0.0 --- 0.00 29.791
06/08/2005 8:00 a 75.0 72.5 72.5 74.1 70.6 80 66.0 0.0 0.0 --- 0.00 29.796
06/08/2005 8:30 a 78.6 75.6 75.6 77.0 74.1 76 67.5 0.0 0.0 --- 0.00 29.802
06/08/2005 9:00 a 79.7 78.0 78.0 79.1 77.0 67 66.2 0.0 0.0 --- 0.00 29.812
06/08/2005 9:30 a 82.0 80.3 80.3 81.4 79.1 60 65.2 0.0 0.0 --- 0.00 29.812
06/08/2005 10:00 a 83.5 82.4 82.4 83.5 81.4 55 64.6 0.0 0.0 --- 0.00 29.808
06/08/2005 10:30 a 86.6 84.3 84.3 84.9 83.5 56 66.9 0.0 0.0 --- 0.00 29.812
06/08/2005 11:00 a 88.6 85.5 85.5 86.1 84.9 52 65.9 0.0 0.0 --- 0.00 29.816
06/08/2005 11:30 a 90.0 86.8 86.8 87.5 86.1 50 65.9 0.0 0.0 --- 0.00 29.815
06/08/2005 12:00 p 90.0 88.2 88.2 89.1 87.5 45 64.2 0.0 0.0 --- 0.00 29.807
06/08/2005 12:30 p 92.0 90.1 90.1 91.0 89.1 40 62.5 0.0 0.0 --- 0.00 29.801
06/08/2005 1:00 p 93.0 91.0 91.0 91.5 90.8 40 63.3 0.0 0.0 --- 0.00 29.803
06/08/2005 1:30 p 93.3 91.0 91.0 91.8 90.5 41 64.1 0.0 0.0 --- 0.00 29.799
06/08/2005 2:00 p 95.7 92.8 92.8 93.3 91.8 39 64.2 0.0 0.0 --- 0.00 29.790
06/08/2005 2:30 p 94.2 93.1 93.1 93.7 92.7 34 60.6 0.0 0.0 --- 0.00 29.787
06/08/2005 3:00 p 95.1 93.2 93.2 93.6 93.0 37 63.1 0.0 0.0 --- 0.00 29.781
06/08/2005 3:30 p 96.0 92.6 92.6 93.4 92.0 40 64.8 0.0 0.0 --- 0.00 29.780
06/08/2005 4:00 p 93.6 91.2 91.2 92.0 90.2 42 64.9 0.0 0.0 --- 0.00 29.777
06/08/2005 4:30 p 92.6 90.1 90.1 90.5 89.7 42 63.9 0.0 0.0 --- 0.00 29.777
06/08/2005 5:00 p 93.2 89.7 89.7 90.2 89.2 44 64.9 0.0 0.0 --- 0.00 29.775
06/08/2005 5:30 p 92.8 88.8 88.8 89.3 88.4 47 66.0 0.0 0.0 --- 0.00 29.773
06/08/2005 6:00 p 91.2 88.4 88.4 88.6 88.0 48 66.2 0.0 3.0 N 0.00 29.777
06/08/2005 6:30 p 90.3 87.2 87.2 88.0 86.7 51 66.9 0.0 2.0 ENE 0.00 29.787
06/08/2005 7:00 p 89.1 86.5 86.5 86.7 86.3 47 63.9 0.0 3.0 NW 0.00 29.790
06/08/2005 7:30 p 88.3 85.6 85.6 86.3 84.8 51 65.4 0.0 2.0 SSE 0.00 29.795
06/08/2005 8:00 p 86.5 84.1 84.1 84.8 83.4 55 66.2 0.0 0.0 --- 0.00 29.797
06/08/2005 8:30 p 85.0 82.6 82.6 83.4 82.0 57 65.8 0.0 0.0 --- 0.00 29.801
06/08/2005 9:00 p 83.9 81.6 81.6 82.0 81.4 59 65.9 0.0 1.0 SSE 0.00 29.809
06/08/2005 9:30 p 83.2 81.4 81.4 81.5 81.0 61 66.7 0.0 0.0 --- 0.00 29.830
06/08/2005 10:00 p 83.6 80.6 80.6 81.0 80.3 63 66.9 0.0 0.0 --- 0.00 29.837
06/08/2005 10:30 p 82.6 79.7 79.7 80.3 79.0 66 67.3 0.0 0.0 --- 0.00 29.847
06/08/2005 11:00 p 80.2 78.2 78.2 79.0 77.1 71 68.0 0.0 0.0 --- 0.00 29.847
06/08/2005 11:30 p 79.4 76.5 76.5 77.1 75.9 72 66.8 0.0 0.0 --- 0.00 29.855
06/09/2005 12:00 a 78.6 75.5 75.5 75.9 75.0 76 67.4 0.0 0.0 --- 0.00 29.857
06/09/2005 12:30 a 76.0 74.3 74.3 75.0 73.7 78 67.0 0.0 0.0 --- 0.00 29.857
06/09/2005 1:00 a 74.9 73.1 73.1 73.7 72.6 79 66.2 0.0 0.0 --- 0.00 29.863
06/09/2005 1:30 a 74.0 72.1 72.1 72.6 71.4 82 66.3 0.0 0.0 --- 0.00 29.861
06/09/2005 2:00 a 73.0 71.0 71.0 71.4 70.7 84 65.9 0.0 0.0 --- 0.00 29.866
06/09/2005 2:30 a 72.0 70.0 70.0 70.7 69.3 87 66.0 0.0 0.0 --- 0.00 29.867
06/09/2005 3:00 a 71.0 68.8 68.8 69.3 68.5 89 65.4 0.0 0.0 --- 0.00 29.873
06/09/2005 3:30 a 70.0 68.4 68.4 68.5 68.3 90 65.4 0.0 0.0 --- 0.00 29.881
06/09/2005 4:00 a 70.0 68.2 68.2 68.3 68.0 90 65.2 0.0 0.0 --- 0.00 29.886
06/09/2005 4:30 a 67.8 67.8 67.8 68.0 67.5 91 65.1 0.0 0.0 --- 0.00 29.889
06/09/2005 5:00 a 67.2 67.2 67.2 67.5 66.9 91 64.5 0.0 0.0 --- 0.00 29.899
06/09/2005 5:30 a 66.6 66.6 66.6 67.0 66.4 93 64.5 0.0 0.0 --- 0.00 29.909
06/09/2005 6:00 a 66.6 66.6 66.6 67.1 66.4 93 64.5 0.0 0.0 --- 0.00 29.915
06/09/2005 6:30 a 67.1 67.1 67.1 67.1 67.0 93 65.0 0.0 0.0 --- 0.00 29.918
06/09/2005 7:00 a 67.5 67.5 67.5 68.4 67.0 94 65.7 0.0 0.0 --- 0.00 29.927
06/09/2005 7:30 a 72.0 69.9 69.9 71.7 68.4 88 66.2 0.0 0.0 --- 0.00 29.932
06/09/2005 8:00 a 75.0 73.2 73.2 74.7 71.7 81 67.0 0.0 0.0 --- 0.00 29.933
06/09/2005 8:30 a 78.9 75.9 75.9 76.8 74.7 79 68.9 0.0 0.0 --- 0.00 29.938
06/09/2005 9:00 a 81.6 77.6 77.6 78.4 76.8 78 70.2 0.0 1.0 S 0.00 29.942
06/09/2005 9:30 a 82.0 79.2 79.2 80.0 78.4 75 70.6 0.0 1.0 S 0.00 29.944
06/09/2005 10:00 a 85.6 80.8 80.8 81.7 80.0 73 71.3 0.0 2.0 S 0.00 29.952
06/09/2005 10:30 a 89.4 82.5 82.5 83.4 81.7 72 72.6 0.0 2.0 SW 0.00 29.952
06/09/2005 11:00 a 89.8 84.1 84.1 84.8 83.4 67 72.0 0.0 3.0 WSW 0.00 29.951
06/09/2005 11:30 a 90.2 85.2 85.2 85.6 84.8 63 71.2 0.0 3.0 NNW 0.00 29.951
06/09/2005 12:00 p 90.1 86.3 86.3 87.0 85.6 57 69.3 0.0 2.0 NW 0.00 29.952
06/09/2005 12:30 p 92.3 87.8 87.8 88.3 87.0 51 67.4 0.0 2.0 NNW 0.00 29.954
06/09/2005 1:00 p 92.9 88.0 88.0 88.6 87.7 53 68.7 0.0 3.0 N 0.00 29.953
06/09/2005 1:30 p 95.0 89.8 89.8 90.7 88.6 50 68.7 0.0 3.0 SE 0.00 29.946
06/09/2005 2:00 p 95.4 90.7 90.7 90.9 90.3 48 68.3 0.0 4.0 SE 0.00 29.944
06/09/2005 2:30 p 95.4 89.9 89.9 90.3 89.2 51 69.4 0.0 2.0 NW 0.00 29.937
06/09/2005 3:00 p 92.0 89.4 89.4 89.8 89.2 45 65.3 0.0 3.0 NW 0.00 29.933
06/09/2005 3:30 p 93.2 90.1 90.1 90.2 89.8 44 65.3 0.0 2.0 NNW 0.00 29.920
06/09/2005 4:00 p 94.1 90.0 90.0 90.2 89.5 47 67.1 0.0 3.0 SSW 0.00 29.923
06/09/2005 4:30 p 93.6 89.3 89.3 89.5 89.2 49 67.7 0.0 3.0 NW 0.00 29.913
06/09/2005 5:00 p 92.4 89.4 89.4 89.6 89.2 46 65.9 0.0 6.0 N 0.00 29.900
06/09/2005 5:30 p 93.2 88.5 88.5 89.2 87.9 48 66.3 1.0 4.0 N 0.00 29.908
06/09/2005 6:00 p 89.4 87.3 87.3 88.0 86.7 48 65.2 0.0 4.0 N 0.00 29.915
06/09/2005 6:30 p 88.6 86.1 86.1 86.7 85.2 52 66.4 0.0 2.0 W 0.00 29.920
06/09/2005 7:00 p 88.4 84.7 84.7 85.2 84.4 57 67.8 0.0 3.0 NW 0.00 29.925
06/09/2005 7:30 p 87.0 83.7 83.7 84.4 83.0 60 68.4 0.0 3.0 NNE 0.00 29.931
06/09/2005 8:00 p 86.2 82.5 82.5 83.1 81.8 63 68.6 0.0 2.0 N 0.00 29.939
06/09/2005 8:30 p 84.2 81.2 81.2 81.8 80.5 66 68.8 0.0 1.0 NW 0.00 29.941
06/09/2005 9:00 p 82.8 80.1 80.1 80.5 79.6 68 68.6 0.0 3.0 NW 0.00 29.952
06/09/2005 9:30 p 81.0 79.1 79.1 79.6 78.7 70 68.5 0.0 2.0 NW 0.00 29.967
06/09/2005 10:00 p 80.4 78.2 78.2 78.7 77.8 72 68.4 0.0 1.0 --- 0.00 29.972
06/09/2005 10:30 p 79.8 77.4 77.4 77.8 77.1 74 68.5 0.0 1.0 NW 0.00 29.971
06/09/2005 11:00 p 80.4 76.7 76.7 77.1 76.4 77 69.0 0.0 0.0 --- 0.00 29.977
06/09/2005 11:30 p 78.8 76.2 76.2 76.4 75.9 78 68.8 0.0 2.0 NNW 0.00 29.985
06/10/2005 12:00 a 78.9 75.7 75.7 75.9 75.4 79 68.7 0.0 1.0 NNW 0.00 29.991
06/10/2005 12:30 a 77.1 75.2 75.2 75.4 75.0 81 69.0 0.0 0.0 --- 0.00 29.985
06/10/2005 1:00 a 77.1 74.9 74.9 75.0 74.7 81 68.7 0.0 0.0 --- 0.00 29.987
06/10/2005 1:30 a 77.2 74.6 74.6 74.7 74.4 82 68.7 0.0 1.0 --- 0.00 29.991
06/10/2005 2:00 a 76.0 74.4 74.4 74.5 74.2 82 68.6 0.0 2.0 NNW 0.00 29.991
06/10/2005 2:30 a 76.0 74.0 74.0 74.2 73.8 84 68.9 0.0 0.0 --- 0.00 29.988
06/10/2005 3:00 a 76.0 73.6 73.6 73.8 73.3 86 69.2 0.0 0.0 --- 0.00 29.978
06/10/2005 3:30 a 75.0 73.2 73.2 73.3 73.1 87 69.1 0.0 1.0 --- 0.00 29.979
06/10/2005 4:00 a 75.0 73.0 73.0 73.2 72.7 88 69.2 0.0 1.0 NNW 0.00 29.979
06/10/2005 4:30 a 75.0 72.6 72.6 72.8 72.5 89 69.2 0.0 1.0 NNW 0.00 29.977
06/10/2005 5:00 a 74.0 72.4 72.4 72.5 72.3 90 69.3 0.0 0.0 --- 0.00 29.976
06/10/2005 5:30 a 74.0 72.4 72.4 72.4 72.3 90 69.3 0.0 0.0 --- 0.00 29.983
06/10/2005 6:00 a 74.2 72.4 72.4 72.4 72.4 91 69.6 0.0 1.0 NNW 0.00 29.982
06/10/2005 6:30 a 74.2 72.4 72.4 72.6 72.4 91 69.6 0.0 2.0 NNW 0.00 29.985
06/10/2005 7:00 a 75.2 72.7 72.7 72.8 72.5 91 69.9 0.0 0.0 --- 0.00 29.989
06/10/2005 7:30 a 75.0 73.0 73.0 73.2 72.8 90 69.9 0.0 0.0 --- 0.00 29.996
06/10/2005 8:00 a 75.2 73.2 73.2 73.3 73.2 91 70.4 0.0 2.0 NNW 0.00 29.999
06/10/2005 8:30 a 76.2 73.5 73.5 73.7 73.3 91 70.7 0.0 1.0 NNW 0.00 29.992
06/10/2005 9:00 a 76.0 73.8 73.8 73.9 73.7 90 70.7 0.0 0.0 --- 0.00 29.993
06/10/2005 9:30 a 76.0 74.2 74.2 74.6 73.9 90 71.1 0.0 1.0 NNW 0.00 29.992
06/10/2005 10:00 a 77.6 75.4 75.4 76.4 74.6 86 70.9 0.0 2.0 NNW 0.00 29.993
06/10/2005 10:30 a 81.0 77.3 77.3 78.3 76.4 83 71.7 0.0 3.0 NW 0.00 29.992
06/10/2005 11:00 a 83.4 78.8 78.8 79.1 78.3 82 72.8 0.0 2.0 SSW 0.00 29.985
06/10/2005 11:30 a 84.6 79.8 79.8 80.3 79.1 78 72.3 0.0 2.0 SW 0.00 29.987
06/10/2005 12:00 p 86.2 80.6 80.6 81.4 80.2 76 72.3 0.0 3.0 NNW 0.00 29.973
06/10/2005 12:30 p 87.8 81.7 81.7 82.5 81.4 74 72.6 0.0 3.0 WNW 0.00 29.965
06/10/2005 1:00 p 90.6 83.8 83.8 84.6 82.6 69 72.6 0.0 3.0 NNW 0.00 29.954
06/10/2005 1:30 p 90.6 84.4 84.4 84.6 84.2 69 73.1 0.0 2.0 NNW 0.00 29.944
06/10/2005 2:00 p 92.2 85.0 85.0 85.4 84.3 68 73.3 0.0 2.0 N 0.00 29.937
06/10/2005 2:30 p 90.6 85.3 85.3 86.7 84.2 64 71.8 0.0 2.0 N 0.00 29.910
06/10/2005 3:00 p 91.4 85.1 85.1 86.7 84.0 66 72.5 0.0 4.0 WNW 0.00 29.910
06/10/2005 3:30 p 90.6 85.0 85.0 85.6 84.3 64 71.5 0.0 3.0 NW 0.00 29.907
06/10/2005 4:00 p 89.2 83.4 83.4 85.4 81.7 71 73.0 0.0 3.0 N 0.00 29.912
06/10/2005 4:30 p 85.2 79.6 79.6 81.6 78.2 81 73.3 0.0 2.0 SW 0.00 29.904
06/10/2005 5:00 p 82.1 78.3 78.3 78.9 78.1 81 72.0 0.0 0.0 --- 0.00 29.900
06/10/2005 5:30 p 84.8 80.2 80.2 80.9 78.9 79 73.1 0.0 1.0 --- 0.00 29.892
06/10/2005 6:00 p 86.4 81.0 81.0 81.1 80.8 77 73.1 0.0 2.0 SW 0.00 29.897
06/10/2005 6:30 p 86.6 81.2 81.2 81.3 80.9 78 73.7 0.0 2.0 SW 0.00 29.897
06/10/2005 7:00 p 86.6 80.6 80.6 80.9 80.3 78 73.1 0.0 0.0 --- 0.00 29.896
06/10/2005 7:30 p 84.6 80.1 80.1 80.3 79.9 78 72.6 0.0 1.0 WSW 0.00 29.906
06/10/2005 8:00 p 84.8 79.7 79.7 79.9 79.4 79 72.6 0.0 0.0 --- 0.00 29.907
06/10/2005 8:30 p 82.8 79.1 79.1 79.5 78.7 79 72.0 0.0 2.0 WSW 0.00 29.913
06/10/2005 9:00 p 81.6 78.2 78.2 78.7 77.7 78 70.8 0.0 1.0 W 0.00 29.914
06/10/2005 9:30 p 81.0 77.3 77.3 77.7 76.9 80 70.7 0.0 1.0 --- 0.00 29.923
06/10/2005 10:00 p 80.6 76.6 76.6 76.9 76.4 78 69.2 0.0 2.0 SSE 0.00 29.932
06/10/2005 10:30 p 78.9 76.0 76.0 76.4 75.6 79 69.0 0.0 1.0 SSE 0.00 29.942
06/10/2005 11:00 p 77.0 75.3 75.3 75.6 74.9 79 68.3 0.0 0.0 --- 0.00 29.939
06/10/2005 11:30 p 77.0 74.5 74.5 74.9 74.0 80 67.9 0.0 1.0 --- 0.00 29.937
06/11/2005 12:00 a 76.0 73.7 73.7 74.0 73.4 81 67.5 0.0 1.0 ESE 0.00 29.934
06/11/2005 12:30 a 75.0 73.1 73.1 73.4 72.8 81 66.9 0.0 1.0 --- 0.00 29.938
06/11/2005 1:00 a 75.0 72.6 72.6 72.8 72.4 82 66.8 0.0 0.0 --- 0.00 29.943
06/11/2005 1:30 a 74.0 72.4 72.4 72.5 72.4 81 66.2 0.0 0.0 --- 0.00 29.947
06/11/2005 2:00 a 74.0 72.4 72.4 72.4 72.3 80 65.9 0.0 0.0 --- 0.00 29.944
06/11/2005 2:30 a 74.0 72.2 72.2 72.3 72.0 80 65.7 0.0 0.0 --- 0.00 29.933
06/11/2005 3:00 a 74.0 71.7 71.7 72.0 71.3 81 65.6 0.0 0.0 --- 0.00 29.931
06/11/2005 3:30 a 73.0 71.0 71.0 71.3 70.6 81 64.9 0.0 0.0 --- 0.00 29.926
06/11/2005 4:00 a 72.0 70.4 70.4 70.7 70.1 84 65.3 0.0 0.0 --- 0.00 29.925
06/11/2005 4:30 a 72.0 69.8 69.8 70.1 69.5 85 65.1 0.0 0.0 --- 0.00 29.928
06/11/2005 5:00 a 71.0 69.3 69.3 69.6 69.0 87 65.3 0.0 0.0 --- 0.00 29.929
06/11/2005 5:30 a 71.0 68.9 68.9 69.1 68.7 88 65.2 0.0 0.0 --- 0.00 29.930
06/11/2005 6:00 a 71.0 68.7 68.7 68.8 68.7 89 65.3 0.0 0.0 --- 0.00 29.937
06/11/2005 6:30 a 71.0 69.0 69.0 69.3 68.8 90 65.9 0.0 0.0 --- 0.00 29.935
06/11/2005 7:00 a 72.0 69.7 69.7 70.2 69.3 89 66.3 0.0 0.0 --- 0.00 29.946
06/11/2005 7:30 a 73.0 71.0 71.0 72.0 70.2 87 66.9 0.0 0.0 --- 0.00 29.943
06/11/2005 8:00 a 75.0 72.8 72.8 73.6 72.0 85 68.0 0.0 0.0 --- 0.00 29.943
06/11/2005 8:30 a 76.0 74.2 74.2 74.6 73.5 84 69.1 0.0 1.0 --- 0.00 29.946
06/11/2005 9:00 a 77.2 75.2 75.2 75.9 74.6 82 69.3 0.0 0.0 --- 0.00 29.939
06/11/2005 9:30 a 79.1 76.4 76.4 77.1 75.9 81 70.1 0.0 0.0 --- 0.00 29.930
06/11/2005 10:00 a 81.8 78.0 78.0 79.0 77.1 79 71.0 0.0 2.0 SW 0.00 29.929
06/11/2005 10:30 a 84.2 80.1 80.1 80.7 79.0 76 71.9 0.0 1.0 S 0.00 29.924
06/11/2005 11:00 a 86.4 81.0 81.0 81.6 80.6 77 73.1 0.0 2.0 SSE 0.00 29.926
06/11/2005 11:30 a 87.6 82.2 82.2 83.0 81.6 73 72.7 0.0 2.0 SSE 0.00 29.927
06/11/2005 12:00 p 89.4 83.3 83.3 83.9 83.0 72 73.3 0.0 2.0 SW 0.00 29.919
06/11/2005 12:30 p 90.6 84.4 84.4 85.0 83.9 69 73.1 0.0 3.0 ESE 0.00 29.914
06/11/2005 1:00 p 94.6 85.7 85.7 86.4 84.9 69 74.4 0.0 2.0 ESE 0.00 29.905
06/11/2005 1:30 p 94.2 86.4 86.4 86.6 86.2 68 74.6 0.0 1.0 ESE 0.00 29.902
06/11/2005 2:00 p 95.0 86.2 86.2 86.5 85.6 70 75.3 0.0 2.0 N 0.00 29.896
06/11/2005 2:30 p 95.4 85.5 85.5 86.2 84.5 71 75.0 0.0 2.0 NE 0.00 29.888
06/11/2005 3:00 p 93.0 82.5 82.5 84.5 80.7 85 77.5 0.0 4.0 E 0.01 29.889
06/11/2005 3:30 p 86.2 80.3 80.3 80.7 80.1 86 75.7 0.0 2.0 ESE 0.00 29.879
06/11/2005 4:00 p 88.0 80.5 80.5 81.4 80.1 85 75.6 0.0 0.0 --- 0.00 29.870
06/11/2005 4:30 p 89.9 82.1 82.1 82.4 81.4 83 76.4 0.0 2.0 ESE 0.00 29.861
06/11/2005 5:00 p 90.5 82.2 82.2 82.4 82.0 85 77.2 0.0 1.0 ESE 0.00 29.862
06/11/2005 5:30 p 88.4 82.1 82.1 82.4 81.9 77 74.2 0.0 2.0 ESE 0.00 29.860
06/11/2005 6:00 p 89.2 82.8 82.8 83.4 82.4 71 72.4 0.0 0.0 --- 0.00 29.862
06/11/2005 6:30 p 91.0 83.7 83.7 83.8 83.4 70 72.9 0.0 0.0 --- 0.00 29.864
06/11/2005 7:00 p 91.6 83.5 83.5 83.6 83.4 72 73.5 0.0 0.0 --- 0.00 29.864
06/11/2005 7:30 p 89.4 83.3 83.3 83.4 83.0 72 73.3 0.0 2.0 ESE 0.00 29.866
06/11/2005 8:00 p 87.6 82.4 82.4 83.0 81.9 73 72.9 0.0 0.0 --- 0.00 29.874
06/11/2005 8:30 p 86.2 81.3 81.3 81.9 80.8 76 73.0 0.0 0.0 --- 0.00 29.884
06/11/2005 9:00 p 86.6 80.5 80.5 80.8 80.3 78 73.0 0.0 1.0 ESE 0.00 29.889
06/11/2005 9:30 p 84.4 80.2 80.2 80.3 80.0 77 72.3 0.0 0.0 --- 0.00 29.888
06/11/2005 10:00 p 84.4 79.7 79.7 80.0 79.5 77 71.9 0.0 0.0 --- 0.00 29.890
06/11/2005 10:30 p 82.6 79.1 79.1 79.5 78.8 78 71.7 0.0 0.0 --- 0.00 29.898
06/11/2005 11:00 p 81.8 78.4 78.4 78.8 78.0 79 71.4 0.0 0.0 --- 0.00 29.900
06/11/2005 11:30 p 82.0 77.9 77.9 78.0 77.6 80 71.2 0.0 0.0 --- 0.00 29.904
06/12/2005 12:00 a 81.0 77.3 77.3 77.6 76.8 82 71.4 0.0 0.0 --- 0.00 29.917
06/12/2005 12:30 a 81.0 76.5 76.5 76.8 76.2 82 70.6 0.0 0.0 --- 0.00 29.917
06/12/2005 1:00 a 79.3 75.8 75.8 76.2 75.4 83 70.3 0.0 0.0 --- 0.00 29.912
06/12/2005 1:30 a 77.4 74.9 74.9 75.4 74.4 84 69.7 0.0 0.0 --- 0.00 29.906
06/12/2005 2:00 a 76.0 74.2 74.2 74.4 73.9 84 69.1 0.0 0.0 --- 0.00 29.903
06/12/2005 2:30 a 76.0 73.6 73.6 73.9 73.3 85 68.8 0.0 0.0 --- 0.00 29.896
06/12/2005 3:00 a 75.0 73.1 73.1 73.3 72.8 85 68.3 0.0 0.0 --- 0.00 29.895
06/12/2005 3:30 a 75.0 72.5 72.5 72.8 72.2 85 67.7 0.0 0.0 --- 0.00 29.898
06/12/2005 4:00 a 74.0 72.0 72.0 72.2 71.7 87 67.9 0.0 0.0 --- 0.00 29.897
06/12/2005 4:30 a 74.0 71.5 71.5 71.8 71.1 88 67.8 0.0 0.0 --- 0.00 29.896
06/12/2005 5:00 a 73.0 70.9 70.9 71.1 70.7 89 67.5 0.0 0.0 --- 0.00 29.903
06/12/2005 5:30 a 73.0 70.6 70.6 70.7 70.4 90 67.5 0.0 0.0 --- 0.00 29.903
06/12/2005 6:00 a 73.0 70.5 70.5 70.6 70.4 90 67.4 0.0 0.0 --- 0.00 29.908
06/12/2005 6:30 a 73.0 70.7 70.7 71.1 70.6 89 67.3 0.0 0.0 --- 0.00 29.912
06/12/2005 7:00 a 74.0 71.6 71.6 72.3 71.1 87 67.5 0.0 0.0 --- 0.00 29.920
06/12/2005 7:30 a 75.0 73.4 73.4 74.5 72.3 82 67.6 0.0 1.0 --- 0.00 29.918
06/12/2005 8:00 a 77.1 74.8 74.8 75.0 74.5 81 68.6 0.0 0.0 --- 0.00 29.919
06/12/2005 8:30 a 77.1 75.3 75.3 75.5 75.0 81 69.1 0.0 0.0 --- 0.00 29.916
06/12/2005 9:00 a 78.9 76.0 76.0 76.7 75.5 79 69.0 0.0 0.0 --- 0.00 29.916
06/12/2005 9:30 a 80.2 77.4 77.4 78.4 76.7 76 69.2 0.0 0.0 --- 0.00 29.908
06/12/2005 10:00 a 81.0 79.1 79.1 79.5 78.4 70 68.5 0.0 0.0 --- 0.00 29.906
06/12/2005 10:30 a 84.4 80.5 80.5 80.9 79.5 67 68.5 0.0 3.0 S 0.00 29.898
06/12/2005 11:00 a 84.0 81.4 81.4 82.1 80.9 65 68.5 0.0 4.0 SSE 0.00 29.901
06/12/2005 11:30 a 85.2 82.0 82.0 82.1 81.8 64 68.6 0.0 2.0 E 0.00 29.892
06/12/2005 12:00 p 84.3 82.2 82.2 83.3 81.9 61 67.4 0.0 2.0 S 0.00 29.882
06/12/2005 12:30 p 87.2 85.0 85.0 86.3 83.3 51 64.9 0.0 3.0 E 0.00 29.878
06/12/2005 1:00 p 90.3 86.5 86.5 86.6 86.3 51 66.2 0.0 4.0 NW 0.00 29.870
06/12/2005 1:30 p 89.4 87.2 87.2 87.7 86.4 48 65.1 0.0 2.0 NNW 0.00 29.861
06/12/2005 2:00 p 92.0 87.5 87.5 87.7 87.2 50 66.6 0.0 3.0 NNW 0.00 29.852
06/12/2005 2:30 p 90.3 86.9 86.9 87.2 86.6 51 66.6 0.0 4.0 SSE 0.00 29.847
06/12/2005 3:00 p 93.2 87.6 87.6 87.9 87.0 54 68.9 0.0 3.0 S 0.00 29.837
06/12/2005 3:30 p 91.2 86.8 86.8 87.5 86.3 54 68.2 0.0 3.0 SE 0.00 29.828
06/12/2005 4:00 p 89.5 85.7 85.7 86.3 85.2 55 67.7 0.0 2.0 SSE 0.00 29.825
06/12/2005 4:30 p 88.0 85.4 85.4 85.6 85.2 55 67.4 0.0 2.0 E 0.00 29.816
06/12/2005 5:00 p 89.2 85.8 85.8 86.1 85.5 54 67.2 0.0 2.0 ESE 0.00 29.804
06/12/2005 5:30 p 88.0 85.3 85.3 85.7 85.2 55 67.3 0.0 1.0 N 0.00 29.800
06/12/2005 6:00 p 88.2 85.0 85.0 85.4 84.5 56 67.6 0.0 2.0 NW 0.00 29.798
06/12/2005 6:30 p 86.8 84.2 84.2 84.5 83.9 58 67.8 0.0 1.0 --- 0.00 29.802
06/12/2005 7:00 p 86.9 83.6 83.6 83.9 83.4 59 67.8 0.0 0.0 --- 0.00 29.805
06/12/2005 7:30 p 85.8 83.1 83.1 83.4 82.8 62 68.7 0.0 0.0 --- 0.00 29.807
06/12/2005 8:00 p 86.2 82.5 82.5 82.8 82.3 63 68.6 0.0 0.0 --- 0.00 29.806
06/12/2005 8:30 p 85.2 81.7 81.7 82.3 81.1 64 68.3 0.0 0.0 --- 0.00 29.804
06/12/2005 9:00 p 84.4 80.6 80.6 81.1 80.0 67 68.6 0.0 0.0 --- 0.00 29.812
06/12/2005 9:30 p 81.0 79.4 79.4 80.0 78.9 68 67.9 0.0 0.0 --- 0.00 29.811
06/12/2005 10:00 p 80.2 78.4 78.4 78.9 78.0 71 68.2 0.0 0.0 --- 0.00 29.816
06/12/2005 10:30 p 80.8 77.6 77.6 78.0 77.3 74 68.7 0.0 0.0 --- 0.00 29.811
06/12/2005 11:00 p 79.8 77.0 77.0 77.3 76.8 74 68.1 0.0 0.0 --- 0.00 29.805
06/12/2005 11:30 p 80.0 76.7 76.7 76.8 76.5 75 68.2 0.0 0.0 --- 0.00 29.803
06/13/2005 12:00 a 78.8 76.4 76.4 76.5 76.2 78 69.0 0.0 0.0 --- 0.00 29.806
06/13/2005 12:30 a 79.0 76.0 76.0 76.3 75.7 80 69.4 0.0 0.0 --- 0.00 29.802
06/13/2005 1:00 a 79.1 75.5 75.5 75.7 75.2 81 69.3 0.0 0.0 --- 0.00 29.791
06/13/2005 1:30 a 77.4 74.9 74.9 75.2 74.5 84 69.7 0.0 0.0 --- 0.00 29.787
06/13/2005 2:00 a 76.0 74.2 74.2 74.6 73.9 86 69.7 0.0 0.0 --- 0.00 29.785
06/13/2005 2:30 a 76.0 73.8 73.8 73.9 73.5 87 69.7 0.0 0.0 --- 0.00 29.783
06/13/2005 3:00 a 75.0 73.2 73.2 73.5 73.0 88 69.4 0.0 0.0 --- 0.00 29.784
06/13/2005 3:30 a 75.0 72.6 72.6 73.0 72.3 90 69.5 0.0 0.0 --- 0.00 29.777
06/13/2005 4:00 a 74.0 72.2 72.2 72.4 72.2 90 69.1 0.0 0.0 --- 0.00 29.775
06/13/2005 4:30 a 74.2 72.0 72.0 72.2 71.7 91 69.2 0.0 0.0 --- 0.00 29.772
06/13/2005 5:00 a 74.2 71.5 71.5 71.7 71.2 91 68.7 0.0 0.0 --- 0.00 29.768
06/13/2005 5:30 a 73.4 70.9 70.9 71.2 70.6 92 68.5 0.0 0.0 --- 0.00 29.767
06/13/2005 6:00 a 73.6 70.5 70.5 70.7 70.4 93 68.4 0.0 0.0 --- 0.00 29.769
06/13/2005 6:30 a 73.8 70.5 70.5 70.7 70.4 94 68.7 0.0 0.0 --- 0.00 29.767
06/13/2005 7:00 a 73.4 71.3 71.3 72.0 70.7 92 68.9 0.0 0.0 --- 0.00 29.764
06/13/2005 7:30 a 75.0 73.2 73.2 74.5 72.0 88 69.4 0.0 0.0 --- 0.00 29.762
06/13/2005 8:00 a 77.5 75.1 75.1 75.7 74.5 85 70.3 0.0 1.0 --- 0.00 29.758
06/13/2005 8:30 a 79.2 76.4 76.4 77.1 75.7 82 70.5 0.0 0.0 --- 0.00 29.750
06/13/2005 9:00 a 82.0 77.5 77.5 78.3 77.0 80 70.8 0.0 0.0 --- 0.00 29.739
06/13/2005 9:30 a 82.4 79.1 79.1 80.0 78.3 77 71.3 0.0 0.0 --- 0.00 29.731
06/13/2005 10:00 a 85.8 80.6 80.6 81.3 80.0 74 71.6 0.0 1.0 SSE 0.00 29.717
06/13/2005 10:30 a 87.4 81.9 81.9 82.3 81.3 72 72.0 0.0 3.0 ESE 0.00 29.705
06/13/2005 11:00 a 89.0 82.8 82.8 83.4 82.1 70 72.0 0.0 4.0 N 0.00 29.699
06/13/2005 11:30 a 89.4 83.0 83.0 83.5 82.5 72 73.0 0.0 2.0 NW 0.00 29.689
06/13/2005 12:00 p 89.4 83.6 83.6 84.9 82.4 66 71.0 0.0 2.0 N 0.00 29.678
06/13/2005 12:30 p 94.2 86.5 86.5 87.6 84.9 63 72.4 0.0 4.0 SSE 0.00 29.664
06/13/2005 1:00 p 93.4 86.9 86.9 87.2 86.5 61 71.8 0.0 4.0 ESE 0.00 29.655
06/13/2005 1:30 p 92.4 87.1 87.1 88.0 86.7 58 70.5 0.0 3.0 ENE 0.00 29.642
06/13/2005 2:00 p 94.4 87.9 87.9 88.3 87.6 58 71.3 0.0 3.0 SSE 0.00 29.636
06/13/2005 2:30 p 93.8 86.8 86.8 87.7 86.0 62 72.2 0.0 3.0 SSE 0.00 29.623
06/13/2005 3:00 p 92.4 86.6 86.6 88.1 85.9 58 70.1 0.0 3.0 ESE 0.00 29.622
06/13/2005 3:30 p 95.0 88.0 88.0 88.1 87.8 60 72.4 0.0 3.0 SE 0.00 29.607
06/13/2005 4:00 p 94.1 88.2 88.2 88.5 87.9 57 71.1 0.0 3.0 SE 0.00 29.599
06/13/2005 4:30 p 93.2 88.1 88.1 88.3 87.9 54 69.4 0.0 4.0 ESE 0.00 29.595
06/13/2005 5:00 p 92.9 87.9 87.9 88.2 87.7 53 68.6 0.0 3.0 SE 0.00 29.582
06/13/2005 5:30 p 93.8 88.1 88.1 88.2 87.9 56 70.4 0.0 3.0 SE 0.00 29.579
06/13/2005 6:00 p 93.8 87.7 87.7 87.9 87.4 56 70.1 0.0 4.0 ESE 0.00 29.575
06/13/2005 6:30 p 92.7 87.2 87.2 87.5 87.0 59 71.1 0.0 2.0 SW 0.00 29.573
06/13/2005 7:00 p 93.4 86.8 86.8 87.0 86.3 61 71.7 0.0 1.0 --- 0.00 29.565
06/13/2005 7:30 p 93.4 85.8 85.8 86.3 85.2 66 73.1 0.0 0.0 --- 0.00 29.562
06/13/2005 8:00 p 92.2 84.7 84.7 85.3 84.2 68 73.0 0.0 0.0 --- 0.00 29.561
06/13/2005 8:30 p 91.0 83.7 83.7 84.2 83.3 70 72.9 0.0 0.0 --- 0.00 29.562
06/13/2005 9:00 p 89.4 82.8 82.8 83.3 82.3 72 72.9 0.0 0.0 --- 0.00 29.568
06/13/2005 9:30 p 88.0 81.9 81.9 82.3 81.7 75 73.2 0.0 0.0 --- 0.00 29.573
06/13/2005 10:00 p 88.2 81.6 81.6 81.7 81.5 76 73.3 0.0 1.0 --- 0.00 29.569
06/13/2005 10:30 p 88.2 81.8 81.8 81.9 81.7 76 73.5 0.0 0.0 --- 0.00 29.572
06/13/2005 11:00 p 88.4 81.5 81.5 81.7 81.1 77 73.6 0.0 0.0 --- 0.00 29.572
06/13/2005 11:30 p 87.0 80.6 80.6 81.1 80.1 80 73.9 0.0 0.0 --- 0.00 29.566
06/14/2005 12:00 a 85.4 79.8 79.8 80.1 79.4 82 73.8 0.0 0.0 --- 0.00 29.566
06/14/2005 12:30 a 84.0 78.8 78.8 79.4 78.4 85 73.9 0.0 0.0 --- 0.00 29.563
06/14/2005 1:00 a 82.6 77.9 77.9 78.4 77.4 86 73.4 0.0 0.0 --- 0.00 29.549
06/14/2005 1:30 a 81.0 77.1 77.1 77.4 76.8 88 73.3 0.0 0.0 --- 0.00 29.547
06/14/2005 2:00 a 81.0 76.7 76.7 76.9 76.6 88 72.9 0.0 0.0 --- 0.00 29.538
06/14/2005 2:30 a 81.0 76.5 76.5 76.6 76.4 90 73.4 0.0 0.0 --- 0.00 29.534
06/14/2005 3:00 a 81.0 76.8 76.8 76.9 76.6 89 73.3 0.0 0.0 --- 0.00 29.527
06/14/2005 3:30 a 81.0 76.8 76.8 76.9 76.7 88 73.0 0.0 0.0 --- 0.00 29.525
06/14/2005 4:00 a 81.0 76.7 76.7 76.7 76.6 86 72.2 0.0 0.0 --- 0.00 29.527
06/14/2005 4:30 a 81.0 76.9 76.9 77.1 76.7 84 71.7 0.0 1.0 --- 0.00 29.529
06/14/2005 5:00 a 81.0 77.1 77.1 77.1 77.0 83 71.5 0.0 0.0 --- 0.00 29.538
06/14/2005 5:30 a 81.0 76.9 76.9 77.0 76.7 82 71.0 0.0 1.0 N 0.00 29.540
06/14/2005 6:00 a 81.0 76.5 76.5 76.7 76.0 85 71.7 0.0 0.0 --- 0.00 29.542
06/14/2005 6:30 a 79.7 75.6 75.6 75.9 75.5 87 71.5 0.0 0.0 --- 0.00 29.541
06/14/2005 7:00 a 79.7 75.7 75.7 76.0 75.5 87 71.6 0.0 0.0 --- 0.00 29.544
06/14/2005 7:30 a 81.0 76.9 76.9 77.9 76.0 81 70.6 0.0 3.0 N 0.00 29.544
06/14/2005 8:00 a 82.2 78.9 78.9 79.6 77.9 76 70.7 0.0 2.0 NE 0.00 29.537
06/14/2005 8:30 a 83.8 80.1 80.1 80.5 79.6 74 71.1 0.0 2.0 NW 0.00 29.544
06/14/2005 9:00 a 84.8 81.0 81.0 81.6 80.5 69 69.9 0.0 3.0 WSW 0.00 29.540
06/14/2005 9:30 a 85.8 82.0 82.0 82.5 81.6 66 69.5 0.0 4.0 SE 0.00 29.535
06/14/2005 10:00 a 86.6 83.2 83.2 83.7 82.5 64 69.8 0.0 3.0 NW 0.00 29.529
06/14/2005 10:30 a 87.8 84.1 84.1 84.5 83.7 62 69.7 0.0 5.0 WNW 0.00 29.526
06/14/2005 11:00 a 89.0 84.7 84.7 85.0 84.4 60 69.3 0.0 4.0 WNW 0.00 29.527
06/14/2005 11:30 a 88.8 85.4 85.4 85.6 85.0 59 69.5 0.0 4.0 ESE 0.00 29.526
06/14/2005 12:00 p 89.5 85.7 85.7 87.2 84.9 55 67.7 1.0 5.0 SE 0.00 29.516
06/14/2005 12:30 p 93.2 88.0 88.0 88.9 87.2 54 69.3 1.0 5.0 SE 0.00 29.511
06/14/2005 1:00 p 95.0 89.7 89.7 90.4 88.9 50 68.6 1.0 5.0 SE 0.00 29.502
06/14/2005 1:30 p 95.7 90.8 90.8 91.2 90.4 49 69.0 1.0 4.0 SE 0.00 29.497
06/14/2005 2:00 p 96.0 91.5 91.5 91.8 91.2 45 67.2 1.0 4.0 SE 0.00 29.484
06/14/2005 2:30 p 96.8 91.9 91.9 92.2 91.5 47 68.8 1.0 4.0 NW 0.00 29.475
06/14/2005 3:00 p 96.0 92.1 92.1 92.5 91.6 45 67.7 0.0 4.0 SE 0.00 29.472
06/14/2005 3:30 p 96.4 92.0 92.0 92.6 91.3 46 68.3 1.0 4.0 SE 0.00 29.471
06/14/2005 4:00 p 96.0 91.8 91.8 92.0 91.4 45 67.5 1.0 5.0 ESE 0.00 29.467
06/14/2005 4:30 p 95.1 91.2 91.2 91.7 90.8 47 68.2 0.0 5.0 SE 0.00 29.456
06/14/2005 5:00 p 96.0 91.5 91.5 91.6 91.3 45 67.2 0.0 4.0 SE 0.00 29.456
06/14/2005 5:30 p 95.7 90.8 90.8 91.4 90.4 49 69.0 0.0 4.0 SW 0.00 29.450
06/14/2005 6:00 p 94.4 90.4 90.4 90.5 90.3 48 68.1 0.0 3.0 WNW 0.00 29.458
06/14/2005 6:30 p 94.7 90.2 90.2 90.3 89.9 49 68.5 0.0 3.0 NW 0.00 29.457
06/14/2005 7:00 p 95.4 89.5 89.5 89.9 89.0 51 69.0 0.0 3.0 WNW 0.00 29.455
06/14/2005 7:30 p 94.9 88.7 88.7 89.1 88.1 53 69.4 0.0 1.0 NNW 0.00 29.460
06/14/2005 8:00 p 93.2 87.5 87.5 88.1 87.0 54 68.8 0.0 0.0 --- 0.00 29.471
06/14/2005 8:30 p 90.4 86.1 86.1 87.0 85.3 58 69.6 0.0 0.0 --- 0.00 29.477
06/14/2005 9:00 p 88.2 84.2 84.2 85.2 83.2 63 70.2 0.0 0.0 --- 0.00 29.485
06/14/2005 9:30 p 87.4 82.5 82.5 83.2 82.0 66 70.0 0.0 0.0 --- 0.00 29.490
06/14/2005 10:00 p 86.7 81.6 81.6 82.0 81.3 69 70.5 0.0 0.0 --- 0.00 29.493
06/14/2005 10:30 p 85.4 80.8 80.8 81.3 80.3 72 70.9 0.0 0.0 --- 0.00 29.492
06/14/2005 11:00 p 83.8 80.0 80.0 80.3 79.7 74 71.0 0.0 0.0 --- 0.00 29.491
06/14/2005 11:30 p 83.8 79.5 79.5 79.8 79.2 74 70.5 0.0 0.0 --- 0.00 29.489
06/15/2005 12:00 a 82.2 78.9 78.9 79.2 78.5 76 70.7 0.0 0.0 --- 0.00 29.489
06/15/2005 12:30 a 81.2 78.4 78.4 78.5 78.3 76 70.2 0.0 0.0 --- 0.00 29.479
06/15/2005 1:00 a 81.4 77.9 77.9 78.3 77.3 77 70.1 0.0 0.0 --- 0.00 29.472
06/15/2005 1:30 a 81.0 76.9 76.9 77.4 76.5 80 70.3 0.0 0.0 --- 0.00 29.469
06/15/2005 2:00 a 79.1 76.1 76.1 76.5 75.9 81 69.9 0.0 0.0 --- 0.00 29.462
06/15/2005 2:30 a 79.0 75.9 75.9 75.9 75.9 80 69.3 0.0 0.0 --- 0.00 29.458
06/15/2005 3:00 a 79.2 75.7 75.7 75.9 75.4 82 69.8 0.0 0.0 --- 0.00 29.447
06/15/2005 3:30 a 77.3 75.1 75.1 75.4 74.7 83 69.6 0.0 0.0 --- 0.00 29.444
06/15/2005 4:00 a 77.5 74.5 74.5 74.8 74.2 85 69.7 0.0 0.0 --- 0.00 29.448
06/15/2005 4:30 a 76.0 74.0 74.0 74.2 73.9 86 69.6 0.0 0.0 --- 0.00 29.447
06/15/2005 5:00 a 76.0 73.8 73.8 73.9 73.7 87 69.7 0.0 0.0 --- 0.00 29.445
06/15/2005 5:30 a 75.0 73.4 73.4 73.8 73.1 88 69.6 0.0 0.0 --- 0.00 29.454
06/15/2005 6:00 a 75.0 72.9 72.9 73.1 72.9 89 69.5 0.0 0.0 --- 0.00 29.454
06/15/2005 6:30 a 75.0 73.2 73.2 73.5 73.0 90 70.1 0.0 0.0 --- 0.00 29.460
06/15/2005 7:00 a 76.0 74.1 74.1 75.1 73.5 86 69.6 0.0 0.0 --- 0.00 29.464
06/15/2005 7:30 a 78.7 76.4 76.4 77.1 75.1 77 68.7 0.0 1.0 --- 0.00 29.470
06/15/2005 8:00 a 80.0 77.8 77.8 79.0 77.0 70 67.2 0.0 2.0 N 0.00 29.479
06/15/2005 8:30 a 82.5 79.7 79.7 80.2 79.0 65 66.9 0.0 3.0 ESE 0.00 29.483
06/15/2005 9:00 a 83.6 80.6 80.6 81.0 80.2 63 66.9 0.0 2.0 WNW 0.00 29.483
06/15/2005 9:30 a 83.0 81.4 81.4 81.8 81.0 60 66.2 0.0 4.0 ESE 0.00 29.485
06/15/2005 10:00 a 83.7 82.3 82.3 82.8 81.8 57 65.6 0.0 4.0 N 0.00 29.481
06/15/2005 10:30 a 85.2 82.2 82.2 83.4 79.0 64 68.8 1.0 4.0 NNW 0.00 29.486
06/15/2005 11:00 a 79.2 76.5 76.5 79.0 74.5 71 66.4 1.0 4.0 NNW 0.00 29.491
06/15/2005 11:30 a 76.0 74.1 74.1 74.6 73.5 71 64.1 0.0 3.0 NNW 0.00 29.498
06/15/2005 12:00 p 74.3 73.0 73.0 73.6 72.5 73 63.8 1.0 3.0 NNW 0.00 29.498
06/15/2005 12:30 p 74.2 73.0 73.0 73.4 72.5 72 63.4 1.0 4.0 N 0.00 29.493
06/15/2005 1:00 p 74.1 72.8 72.8 73.8 72.1 71 62.9 1.0 3.0 N 0.00 29.488
06/15/2005 1:30 p 76.0 73.9 73.9 74.5 72.8 71 63.9 1.0 3.0 NNW 0.00 29.479
06/15/2005 2:00 p 73.0 71.6 71.6 72.7 70.7 75 63.3 1.0 3.0 NNW 0.00 29.484
06/15/2005 2:30 p 73.0 71.5 71.5 72.2 70.7 75 63.2 0.0 2.0 NW 0.00 29.480
06/15/2005 3:00 p 72.6 72.1 72.1 72.7 71.0 73 63.0 0.0 3.0 N 0.00 29.477
06/15/2005 3:30 p 74.3 73.2 73.2 73.7 72.2 73 64.0 0.0 2.0 N 0.00 29.475
06/15/2005 4:00 p 72.8 71.5 71.5 72.2 71.1 74 62.8 0.0 3.0 NNW 0.00 29.476
06/15/2005 4:30 p 72.4 70.9 70.9 71.3 70.6 77 63.3 0.0 2.0 N 0.00 29.474
06/15/2005 5:00 p 72.4 70.7 70.7 71.1 70.2 77 63.1 0.0 3.0 N 0.00 29.472
06/15/2005 5:30 p 72.0 69.7 69.7 70.2 68.8 80 63.3 1.0 3.0 N 0.00 29.476
06/15/2005 6:00 p 71.0 68.8 68.8 69.0 68.3 81 62.7 0.0 2.0 N 0.00 29.475
06/15/2005 6:30 p 67.6 67.6 67.6 68.4 66.6 84 62.6 0.0 3.0 NNW 0.00 29.483
06/15/2005 7:00 p 66.2 66.2 66.2 66.6 65.9 85 61.6 0.0 2.0 NNE 0.00 29.484
06/15/2005 7:30 p 65.5 65.5 65.5 66.0 64.8 88 61.9 0.0 2.0 NE 0.00 29.490
06/15/2005 8:00 p 64.4 64.4 64.4 64.8 64.3 90 61.4 0.0 2.0 NNE 0.00 29.497
06/15/2005 8:30 p 64.3 64.3 64.3 64.3 64.2 90 61.3 0.0 2.0 NNE 0.00 29.498
06/15/2005 9:00 p 64.2 64.2 64.2 64.3 64.1 91 61.5 0.0 1.0 --- 0.00 29.505
06/15/2005 9:30 p 64.0 64.0 64.0 64.2 63.6 92 61.6 0.0 1.0 NNE 0.00 29.514
06/15/2005 10:00 p 63.5 63.5 63.5 63.6 63.5 93 61.4 0.0 2.0 NNE 0.00 29.515
06/15/2005 10:30 p 63.4 63.4 63.4 63.5 63.2 94 61.6 0.0 2.0 N 0.00 29.513
06/15/2005 11:00 p 63.4 63.4 63.4 63.5 63.2 94 61.6 0.0 1.0 N 0.00 29.513
06/15/2005 11:30 p 63.6 63.6 63.6 63.9 63.5 93 61.5 0.0 3.0 ESE 0.00 29.516
06/16/2005 12:00 a 63.4 63.4 63.4 63.7 63.1 95 61.9 0.0 0.0 --- 0.00 29.507
06/16/2005 12:30 a 62.9 62.9 62.9 63.1 62.7 95 61.4 0.0 1.0 --- 0.00 29.508
06/16/2005 1:00 a 62.7 62.7 62.7 62.7 62.5 96 61.5 0.0 0.0 --- 0.01 29.504
06/16/2005 1:30 a 62.3 62.3 62.3 62.5 62.2 96 61.1 0.0 1.0 --- 0.00 29.499
06/16/2005 2:00 a 62.0 62.0 62.0 62.2 62.0 96 60.9 0.0 1.0 --- 0.00 29.501
06/16/2005 2:30 a 62.1 62.1 62.1 62.2 62.0 97 61.2 0.0 0.0 --- 0.00 29.505
06/16/2005 3:00 a 62.0 62.0 62.0 62.1 62.0 97 61.1 0.0 0.0 --- 0.00 29.490
06/16/2005 3:30 a 62.0 62.0 62.0 62.1 61.8 96 60.9 0.0 0.0 --- 0.00 29.485
06/16/2005 4:00 a 61.7 61.7 61.7 61.8 61.6 97 60.8 0.0 0.0 --- 0.00 29.480
06/16/2005 4:30 a 61.7 61.7 61.7 61.8 61.7 97 60.8 0.0 0.0 --- 0.00 29.484
06/16/2005 5:00 a 61.8 61.8 61.8 61.9 61.8 96 60.7 0.0 0.0 --- 0.00 29.490
06/16/2005 5:30 a 61.8 61.8 61.8 61.8 61.7 97 60.9 0.0 1.0 --- 0.00 29.482
06/16/2005 6:00 a 61.9 61.9 61.9 61.9 61.8 97 61.0 0.0 0.0 --- 0.00 29.487
06/16/2005 6:30 a 62.0 62.0 62.0 62.0 61.9 97 61.1 0.0 0.0 --- 0.00 29.489
06/16/2005 7:00 a 62.1 62.1 62.1 62.3 62.0 97 61.2 0.0 0.0 --- 0.00 29.491
06/16/2005 7:30 a 62.6 62.6 62.6 62.9 62.3 96 61.4 0.0 0.0 --- 0.00 29.496
06/16/2005 8:00 a 63.1 63.1 63.1 63.4 62.9 96 61.9 0.0 0.0 --- 0.00 29.490
06/16/2005 8:30 a 63.8 63.8 63.8 64.3 63.4 94 62.0 0.0 1.0 --- 0.00 29.491
06/16/2005 9:00 a 64.8 64.8 64.8 65.1 64.3 93 62.7 0.0 2.0 NE 0.00 29.489
06/16/2005 9:30 a 65.4 65.4 65.4 65.7 65.1 92 63.0 0.0 1.0 --- 0.00 29.487
06/16/2005 10:00 a 65.9 65.9 65.9 66.1 65.7 90 62.9 0.0 2.0 NE 0.00 29.491
06/16/2005 10:30 a 66.8 66.8 66.8 67.8 66.1 87 62.8 0.0 3.0 NE 0.00 29.482
06/16/2005 11:00 a 71.0 68.9 68.9 70.0 67.8 84 63.9 0.0 2.0 N 0.00 29.467
06/16/2005 11:30 a 73.0 71.1 71.1 72.5 70.0 82 65.3 0.0 3.0 N 0.00 29.460
06/16/2005 12:00 p 76.0 74.0 74.0 75.0 72.6 73 64.8 0.0 2.0 NNW 0.00 29.455
06/16/2005 12:30 p 76.0 73.9 73.9 74.9 73.4 77 66.2 0.0 2.0 N 0.00 29.446
06/16/2005 1:00 p 76.0 74.2 74.2 74.7 73.9 75 65.8 0.0 2.0 SSE 0.00 29.435
06/16/2005 1:30 p 76.0 74.3 74.3 75.2 72.8 76 66.3 0.0 1.0 SSE 0.00 29.426
06/16/2005 2:00 p 74.0 71.6 71.6 72.8 70.4 83 66.2 0.0 2.0 NNE 0.00 29.431
06/16/2005 2:30 p 71.2 68.6 68.6 70.4 67.6 92 66.2 0.0 1.0 ENE 0.01 29.416
06/16/2005 3:00 p 67.2 67.2 67.2 67.6 67.0 94 65.4 0.0 2.0 ENE 0.01 29.413
06/16/2005 3:30 p 71.1 68.5 68.5 69.5 67.3 91 65.8 0.0 2.0 ENE 0.02 29.396
06/16/2005 4:00 p 72.0 70.2 70.2 70.8 69.5 87 66.2 0.0 1.0 --- 0.02 29.383
06/16/2005 4:30 p 74.0 71.6 71.6 72.0 70.8 87 67.5 0.0 2.0 ENE 0.01 29.375
06/16/2005 5:00 p 74.0 71.7 71.7 71.9 71.5 85 67.0 0.0 1.0 --- 0.02 29.369
06/16/2005 5:30 p 73.0 70.9 70.9 71.7 69.6 87 66.8 1.0 6.0 SE 0.00 29.407
06/16/2005 6:00 p 71.0 68.6 68.6 69.6 67.7 89 65.2 0.0 3.0 SE 0.01 29.426
06/16/2005 6:30 p 67.4 67.4 67.4 67.7 67.1 94 65.6 0.0 1.0 NNE 0.01 29.437
06/16/2005 7:00 p 67.0 67.0 67.0 67.1 67.0 95 65.5 0.0 0.0 --- 0.01 29.447
06/16/2005 7:30 p 66.9 66.9 66.9 67.1 66.9 95 65.4 0.0 0.0 --- 0.01 29.456
06/16/2005 8:00 p 67.5 67.5 67.5 67.8 67.0 86 63.2 0.0 4.0 ESE 0.01 29.457
06/16/2005 8:30 p 67.8 67.8 67.8 68.0 67.5 84 62.8 1.0 4.0 ESE 0.01 29.471
06/16/2005 9:00 p 67.1 67.1 67.1 67.5 66.6 80 60.7 0.0 5.0 SE 0.00 29.472
06/16/2005 9:30 p 66.0 66.0 66.0 66.6 65.4 80 59.7 0.0 4.0 SE 0.01 29.493
06/16/2005 10:00 p 64.9 64.9 64.9 65.4 64.2 81 58.9 0.0 3.0 ESE 0.01 29.502
06/16/2005 10:30 p 63.8 63.8 63.8 64.2 63.3 82 58.2 0.0 4.0 ESE 0.00 29.509
06/16/2005 11:00 p 63.1 63.1 63.1 63.3 62.8 82 57.5 0.0 3.0 ESE 0.00 29.507
06/16/2005 11:30 p 62.3 62.3 62.3 62.8 62.0 81 56.4 0.0 2.0 SE 0.00 29.513
06/17/2005 12:00 a 61.6 61.6 61.6 62.0 61.2 83 56.4 0.0 2.0 ESE 0.00 29.507
06/17/2005 12:30 a 61.3 61.3 61.3 61.6 61.2 78 54.4 0.0 3.0 E 0.00 29.510
06/17/2005 1:00 a 61.3 61.3 61.3 61.6 60.4 82 55.8 0.0 3.0 E 0.00 29.519
06/17/2005 1:30 a 59.4 59.4 59.4 60.4 58.7 87 55.5 0.0 0.0 --- 0.00 29.522
06/17/2005 2:00 a 58.1 58.1 58.1 58.7 57.7 90 55.2 0.0 0.0 --- 0.00 29.514
06/17/2005 2:30 a 57.4 57.4 57.4 57.7 57.0 91 54.8 0.0 0.0 --- 0.00 29.512
06/17/2005 3:00 a 56.8 56.8 56.8 57.0 56.7 93 54.8 0.0 0.0 --- 0.00 29.519
06/17/2005 3:30 a 56.6 56.6 56.6 56.7 56.5 94 54.9 0.0 0.0 --- 0.00 29.524
06/17/2005 4:00 a 56.3 56.3 56.3 56.5 56.2 94 54.6 0.0 0.0 --- 0.00 29.529
06/17/2005 4:30 a 55.9 55.9 55.9 56.2 55.6 94 54.2 0.0 0.0 --- 0.00 29.527
06/17/2005 5:00 a 55.4 55.4 55.4 55.6 55.1 94 53.7 0.0 0.0 --- 0.00 29.532
06/17/2005 5:30 a 55.0 55.0 55.0 55.2 54.7 94 53.3 0.0 0.0 --- 0.00 29.542
06/17/2005 6:00 a 54.9 54.9 54.9 55.6 54.7 97 54.1 0.0 0.0 --- 0.00 29.545
06/17/2005 6:30 a 55.9 55.9 55.9 56.2 55.6 95 54.5 0.0 0.0 --- 0.00 29.540
06/17/2005 7:00 a 56.6 56.6 56.6 57.1 56.2 95 55.2 0.0 0.0 --- 0.00 29.546
06/17/2005 7:30 a 58.2 58.2 58.2 59.6 57.1 88 54.7 0.0 2.0 NE 0.00 29.547
06/17/2005 8:00 a 60.6 60.6 60.6 61.6 59.6 80 54.4 0.0 1.0 NNE 0.00 29.546
06/17/2005 8:30 a 62.5 62.5 62.5 63.4 61.6 75 54.5 0.0 2.0 NNE 0.00 29.561
06/17/2005 9:00 a 64.0 64.0 64.0 64.8 63.3 71 54.4 0.0 3.0 E 0.00 29.568
06/17/2005 9:30 a 65.6 65.6 65.6 66.4 64.8 66 53.9 0.0 2.0 ESE 0.00 29.568
06/17/2005 10:00 a 67.0 67.0 67.0 67.4 66.4 63 54.0 0.0 3.0 NNE 0.00 29.569
06/17/2005 10:30 a 67.9 67.9 67.9 68.7 67.3 60 53.5 0.0 3.0 NNE 0.00 29.574
06/17/2005 11:00 a 68.4 69.3 69.3 69.9 68.7 57 53.4 0.0 4.0 ESE 0.00 29.572
06/17/2005 11:30 a 69.4 70.2 70.2 70.4 69.7 57 54.3 0.0 5.0 SE 0.00 29.576
06/17/2005 12:00 p 69.2 70.2 70.2 70.6 69.7 56 53.8 0.0 3.0 SE 0.00 29.573
06/17/2005 12:30 p 70.0 69.8 69.8 70.1 69.1 60 55.3 0.0 2.0 N 0.00 29.572
06/17/2005 1:00 p 68.8 70.1 70.1 72.1 69.0 54 52.7 0.0 4.0 SE 0.00 29.564
06/17/2005 1:30 p 71.2 72.2 72.2 73.0 71.4 52 53.6 0.0 3.0 SSE 0.00 29.562
06/17/2005 2:00 p 69.6 71.4 71.4 73.1 70.4 53 53.4 0.0 5.0 NE 0.00 29.560
06/17/2005 2:30 p 73.8 73.7 73.7 74.2 73.1 49 53.4 0.0 4.0 SE 0.00 29.562
06/17/2005 3:00 p 74.4 74.6 74.6 74.9 74.2 47 53.1 1.0 5.0 SE 0.00 29.555
06/17/2005 3:30 p 72.4 73.1 73.1 74.2 72.4 47 51.7 0.0 4.0 WNW 0.00 29.556
06/17/2005 4:00 p 73.0 73.6 73.6 74.2 72.5 45 51.0 1.0 4.0 SE 0.00 29.560
06/17/2005 4:30 p 72.8 74.1 74.1 74.6 73.3 44 50.8 0.0 3.0 SSE 0.00 29.567
06/17/2005 5:00 p 72.8 72.9 72.9 73.3 72.1 49 52.6 0.0 6.0 SSW 0.00 29.567
06/17/2005 5:30 p 71.1 72.1 72.1 72.3 71.8 51 53.0 0.0 3.0 SSW 0.00 29.563
06/17/2005 6:00 p 70.7 72.0 72.0 72.4 71.7 47 50.7 0.0 3.0 N 0.00 29.569
06/17/2005 6:30 p 70.6 72.2 72.2 72.4 72.0 46 50.3 0.0 4.0 SSE 0.00 29.581
06/17/2005 7:00 p 70.9 71.7 71.7 72.0 71.4 49 51.5 0.0 3.0 S 0.00 29.581
06/17/2005 7:30 p 69.0 71.1 71.1 71.4 70.6 49 51.0 0.0 2.0 SE 0.00 29.588
06/17/2005 8:00 p 68.4 70.0 70.0 70.6 69.6 52 51.6 0.0 3.0 SE 0.00 29.607
06/17/2005 8:30 p 67.6 69.1 69.1 69.7 68.5 53 51.3 0.0 4.0 ESE 0.00 29.614
06/17/2005 9:00 p 67.0 68.0 68.0 68.5 67.4 55 51.2 0.0 3.0 ESE 0.00 29.625
06/17/2005 9:30 p 66.8 66.8 66.8 67.4 66.2 57 51.1 0.0 4.0 ESE 0.00 29.633
06/17/2005 10:00 p 65.4 65.4 65.4 66.2 64.5 62 52.1 0.0 0.0 --- 0.00 29.643
06/17/2005 10:30 p 63.7 63.7 63.7 64.5 62.7 68 53.0 0.0 0.0 --- 0.00 29.644
06/17/2005 11:00 p 61.9 61.9 61.9 62.7 61.2 70 52.0 0.0 0.0 --- 0.00 29.650
06/17/2005 11:30 p 60.7 60.7 60.7 61.3 60.1 73 52.0 0.0 0.0 --- 0.00 29.652
06/18/2005 12:00 a 59.6 59.6 59.6 60.2 58.9 76 52.0 0.0 0.0 --- 0.00 29.654
06/18/2005 12:30 a 58.5 58.5 58.5 58.9 58.1 80 52.4 0.0 0.0 --- 0.00 29.654
06/18/2005 1:00 a 57.9 57.9 57.9 58.1 57.8 82 52.4 0.0 0.0 --- 0.00 29.654
06/18/2005 1:30 a 57.5 57.5 57.5 57.8 57.2 82 52.1 0.0 0.0 --- 0.00 29.650
06/18/2005 2:00 a 57.2 57.2 57.2 57.3 56.9 83 52.1 0.0 0.0 --- 0.00 29.652
06/18/2005 2:30 a 56.5 56.5 56.5 56.9 55.9 86 52.4 0.0 0.0 --- 0.00 29.654
06/18/2005 3:00 a 55.6 55.6 55.6 56.0 55.4 87 51.8 0.0 0.0 --- 0.00 29.643
06/18/2005 3:30 a 55.1 55.1 55.1 55.4 54.9 88 51.6 0.0 0.0 --- 0.00 29.649
06/18/2005 4:00 a 54.5 54.5 54.5 54.9 54.2 90 51.6 0.0 0.0 --- 0.00 29.654
06/18/2005 4:30 a 54.7 54.7 54.7 55.7 54.1 90 51.8 0.0 0.0 --- 0.00 29.652
06/18/2005 5:00 a 55.9 55.9 55.9 56.0 55.7 89 52.7 0.0 0.0 --- 0.00 29.664
06/18/2005 5:30 a 55.8 55.8 55.8 55.9 55.7 89 52.6 0.0 1.0 ESE 0.00 29.666
06/18/2005 6:00 a 56.5 56.5 56.5 56.9 55.9 87 52.7 0.0 0.0 --- 0.00 29.677
06/18/2005 6:30 a 57.3 57.3 57.3 57.8 56.9 86 53.2 0.0 0.0 --- 0.00 29.688
06/18/2005 7:00 a 58.3 58.3 58.3 58.8 57.8 84 53.5 0.0 0.0 --- 0.00 29.693
06/18/2005 7:30 a 59.7 59.7 59.7 61.0 58.8 80 53.5 0.0 0.0 --- 0.00 29.690
06/18/2005 8:00 a 62.3 62.3 62.3 63.5 61.0 76 54.6 0.0 0.0 --- 0.00 29.700
06/18/2005 8:30 a 64.4 64.4 64.4 65.2 63.5 73 55.6 0.0 2.0 ESE 0.00 29.708
06/18/2005 9:00 a 65.9 65.9 65.9 66.5 65.2 69 55.5 0.0 4.0 ESE 0.00 29.712
06/18/2005 9:30 a 67.2 67.2 67.2 67.8 66.5 65 55.1 0.0 5.0 WNW 0.00 29.714
06/18/2005 10:00 a 68.0 68.0 68.0 68.8 67.6 65 55.8 0.0 5.0 ESE 0.00 29.722
06/18/2005 10:30 a 69.0 69.3 69.3 69.6 68.8 62 55.7 0.0 4.0 E 0.00 29.729
06/18/2005 11:00 a 69.8 70.1 70.1 70.9 69.6 59 55.1 0.0 4.0 ESE 0.00 29.732
06/18/2005 11:30 a 71.5 72.0 72.0 72.8 70.9 55 55.0 1.0 4.0 ESE 0.00 29.732
06/18/2005 12:00 p 71.7 72.0 72.0 72.3 71.8 57 56.0 0.0 3.0 SE 0.00 29.732
06/18/2005 12:30 p 71.4 72.1 72.1 73.5 71.8 54 54.6 0.0 3.0 ESE 0.00 29.731
06/18/2005 1:00 p 75.0 74.7 74.7 75.5 73.6 51 55.4 0.0 5.0 SE 0.00 29.729
06/18/2005 1:30 p 74.0 73.8 73.8 75.3 72.9 54 56.1 1.0 5.0 SE 0.00 29.738
06/18/2005 2:00 p 73.0 73.0 73.0